EVA011 KLAX-RCTP
Flight info
| Callsign | EVA011 |
|---|---|
| Flight time | N/A |
| Altitude | 30000 |
| Route | SUMMR2 MCKEY DCT LIBBO DCT BRINY DCT BOARS DCT AMAKR DCT REDWD DCT TRYSH DCT 41N130W 43N140W/N0495F320 46N150W 48N160W 49N170W 48N180E/N0492F340 45N170E 39N160E 32N150E/N0484F360 DCT UKATA DCT BIXAK DCT DELTA DCT ONC/N0481F380 Y525 KXC Y62 GANAS Y576 LILRA R595 GRACE GRACE1A |
| Aircraft | B77W/H-SDE1E2E3FGHIJ1J3J4J5LM1P2RWXYZ/LB1D1 |
Departure
| Time | 2026-05-04 01:17 |
|---|---|
| Airport | Los Angeles International Airport (KLAX) |
Arrival
| Time | N/A |
|---|---|
| Airport | Taiwan Taoyuan International Airport (RCTP) |
| Time | Latitude | Longitude | Altitude | Speed | Heading |
|---|---|---|---|---|---|
| 2026-05-04 00:24 | 33.94262 | -118.41107 | 98 ft | 0 kts | 83° |
| 2026-05-04 01:08 | 33.94260 | -118.41129 | 97 ft | 4 kts | 83° |
| 2026-05-04 01:08 | 33.94257 | -118.41161 | 99 ft | 4 kts | 83° |
| 2026-05-04 01:08 | 33.94254 | -118.41187 | 97 ft | 4 kts | 66° |
| 2026-05-04 01:08 | 33.94239 | -118.41210 | 98 ft | 4 kts | 21° |
| 2026-05-04 01:09 | 33.94215 | -118.41213 | 97 ft | 4 kts | 353° |
| 2026-05-04 01:09 | 33.94189 | -118.41209 | 97 ft | 2 kts | 353° |
| 2026-05-04 01:09 | 33.94187 | -118.41208 | 98 ft | 0 kts | 353° |
| 2026-05-04 01:11 | 33.94238 | -118.41216 | 100 ft | 15 kts | 352° |
| 2026-05-04 01:11 | 33.94376 | -118.41238 | 99 ft | 23 kts | 353° |
| 2026-05-04 01:11 | 33.94548 | -118.41262 | 100 ft | 23 kts | 353° |
| 2026-05-04 01:11 | 33.94695 | -118.41284 | 98 ft | 19 kts | 353° |
| 2026-05-04 01:12 | 33.94773 | -118.41276 | 102 ft | 12 kts | 38° |
| 2026-05-04 01:12 | 33.94806 | -118.41147 | 99 ft | 19 kts | 81° |
| 2026-05-04 01:12 | 33.94825 | -118.40966 | 101 ft | 25 kts | 83° |
| 2026-05-04 01:12 | 33.94844 | -118.40786 | 99 ft | 20 kts | 83° |
| 2026-05-04 01:13 | 33.94861 | -118.40625 | 99 ft | 18 kts | 83° |
| 2026-05-04 01:13 | 33.94876 | -118.40470 | 102 ft | 19 kts | 83° |
| 2026-05-04 01:13 | 33.94892 | -118.40313 | 100 ft | 19 kts | 83° |
| 2026-05-04 01:13 | 33.94907 | -118.40164 | 98 ft | 16 kts | 83° |
| 2026-05-04 01:14 | 33.94916 | -118.40073 | 100 ft | 8 kts | 83° |
| 2026-05-04 01:14 | 33.94922 | -118.40014 | 98 ft | 7 kts | 83° |
| 2026-05-04 01:14 | 33.94936 | -118.39951 | 99 ft | 8 kts | 60° |
| 2026-05-04 01:14 | 33.94946 | -118.39938 | 97 ft | 0 kts | 44° |
| 2026-05-04 01:15 | 33.94949 | -118.39935 | 100 ft | 4 kts | 41° |
| 2026-05-04 01:15 | 33.95017 | -118.39925 | 100 ft | 13 kts | 332° |
| 2026-05-04 01:16 | 33.95035 | -118.40007 | 101 ft | 5 kts | 263° |
| 2026-05-04 01:16 | 33.95035 | -118.40008 | 101 ft | 0 kts | 263° |
| 2026-05-04 01:16 | 33.95032 | -118.40040 | 100 ft | 22 kts | 263° |
| 2026-05-04 01:17 | 33.94979 | -118.40569 | 104 ft | 105 kts | 263° |
| 2026-05-04 01:17 | 33.94857 | -118.41769 | 103 ft | 182 kts | 263° |
| 2026-05-04 01:17 | 33.94686 | -118.43431 | 571 ft | 211 kts | 263° |
| 2026-05-04 01:17 | 33.94515 | -118.45184 | 1678 ft | 208 kts | 263° |
| 2026-05-04 01:18 | 33.94405 | -118.46311 | 2203 ft | 202 kts | 263° |
| 2026-05-04 01:18 | 33.94290 | -118.48047 | 2478 ft | 216 kts | 266° |
| 2026-05-04 01:18 | 33.94236 | -118.49903 | 2742 ft | 228 kts | 267° |
| 2026-05-04 01:18 | 33.94175 | -118.51857 | 3091 ft | 239 kts | 264° |
| 2026-05-04 01:19 | 33.94016 | -118.53890 | 3505 ft | 249 kts | 263° |
| 2026-05-04 01:19 | 33.93835 | -118.56034 | 3819 ft | 263 kts | 263° |
| 2026-05-04 01:19 | 33.93655 | -118.58235 | 4464 ft | 265 kts | 263° |
| 2026-05-04 01:19 | 33.93477 | -118.60448 | 5159 ft | 266 kts | 264° |
| 2026-05-04 01:20 | 33.93304 | -118.62673 | 5799 ft | 269 kts | 263° |
| 2026-05-04 01:20 | 33.93126 | -118.64922 | 6434 ft | 271 kts | 264° |
| 2026-05-04 01:20 | 33.92949 | -118.67193 | 7028 ft | 274 kts | 263° |
| 2026-05-04 01:20 | 33.92771 | -118.69486 | 7621 ft | 276 kts | 264° |
| 2026-05-04 01:21 | 33.92591 | -118.71799 | 8205 ft | 278 kts | 264° |
| 2026-05-04 01:21 | 33.92409 | -118.74130 | 8803 ft | 281 kts | 264° |
| 2026-05-04 01:21 | 33.92225 | -118.76478 | 9353 ft | 283 kts | 264° |
| 2026-05-04 01:21 | 33.92042 | -118.78844 | 9929 ft | 284 kts | 263° |
| 2026-05-04 01:22 | 33.91858 | -118.81213 | 10542 ft | 284 kts | 263° |
| 2026-05-04 01:22 | 33.91677 | -118.83582 | 11089 ft | 286 kts | 264° |
| 2026-05-04 01:22 | 33.91668 | -118.86052 | 11261 ft | 305 kts | 270° |
| 2026-05-04 01:22 | 33.91784 | -118.88675 | 11433 ft | 323 kts | 270° |
| 2026-05-04 01:23 | 33.91910 | -118.91447 | 11589 ft | 341 kts | 270° |
| 2026-05-04 01:23 | 33.92019 | -118.94381 | 11811 ft | 358 kts | 269° |
| 2026-05-04 01:23 | 33.92113 | -118.97412 | 12264 ft | 367 kts | 269° |
| 2026-05-04 01:23 | 33.92250 | -119.00489 | 12814 ft | 371 kts | 276° |
| 2026-05-04 01:24 | 33.93060 | -119.03458 | 13397 ft | 380 kts | 296° |
| 2026-05-04 01:24 | 33.94493 | -119.06138 | 13946 ft | 384 kts | 299° |
| 2026-05-04 01:24 | 33.95944 | -119.08853 | 14598 ft | 385 kts | 297° |
| 2026-05-04 01:24 | 33.97366 | -119.11586 | 15342 ft | 385 kts | 297° |
| 2026-05-04 01:25 | 33.98779 | -119.14321 | 16062 ft | 385 kts | 297° |
| 2026-05-04 01:25 | 34.00191 | -119.17058 | 16732 ft | 384 kts | 297° |
| 2026-05-04 01:25 | 34.01893 | -119.19586 | 17206 ft | 398 kts | 314° |
| 2026-05-04 01:25 | 34.04166 | -119.21579 | 17492 ft | 410 kts | 320° |
| 2026-05-04 01:26 | 34.06504 | -119.23498 | 17978 ft | 413 kts | 319° |
| 2026-05-04 01:26 | 34.08866 | -119.25461 | 18672 ft | 412 kts | 319° |
| 2026-05-04 01:26 | 34.11220 | -119.27448 | 19280 ft | 413 kts | 318° |
| 2026-05-04 01:26 | 34.13579 | -119.29456 | 19770 ft | 416 kts | 317° |
| 2026-05-04 01:27 | 34.15949 | -119.31488 | 20252 ft | 420 kts | 317° |
| 2026-05-04 01:27 | 34.18334 | -119.33541 | 20740 ft | 423 kts | 317° |
| 2026-05-04 01:27 | 34.20763 | -119.35640 | 21232 ft | 425 kts | 317° |
| 2026-05-04 01:27 | 34.23142 | -119.37695 | 21688 ft | 427 kts | 316° |
| 2026-05-04 01:28 | 34.25568 | -119.39789 | 22142 ft | 430 kts | 316° |
| 2026-05-04 01:28 | 34.28041 | -119.41930 | 22599 ft | 432 kts | 316° |
| 2026-05-04 01:28 | 34.30490 | -119.44049 | 23052 ft | 434 kts | 316° |
| 2026-05-04 01:28 | 34.32920 | -119.46152 | 23472 ft | 436 kts | 316° |
| 2026-05-04 01:29 | 34.35398 | -119.48298 | 23856 ft | 439 kts | 316° |
| 2026-05-04 01:29 | 34.37890 | -119.50458 | 24245 ft | 442 kts | 315° |
| 2026-05-04 01:29 | 34.40391 | -119.52631 | 24629 ft | 443 kts | 314° |
| 2026-05-04 01:29 | 34.42687 | -119.55045 | 25015 ft | 432 kts | 304° |
| 2026-05-04 01:30 | 34.44649 | -119.57778 | 25432 ft | 429 kts | 301° |
| 2026-05-04 01:30 | 34.46542 | -119.60574 | 25844 ft | 429 kts | 301° |
| 2026-05-04 01:30 | 34.48423 | -119.63380 | 26271 ft | 430 kts | 301° |
| 2026-05-04 01:30 | 34.50324 | -119.66186 | 26602 ft | 432 kts | 301° |
| 2026-05-04 01:31 | 34.52252 | -119.68995 | 26923 ft | 434 kts | 301° |
| 2026-05-04 01:31 | 34.54199 | -119.71802 | 27298 ft | 435 kts | 301° |
| 2026-05-04 01:31 | 34.56158 | -119.74607 | 27650 ft | 436 kts | 301° |
| 2026-05-04 01:31 | 34.58130 | -119.77418 | 27975 ft | 438 kts | 301° |
| 2026-05-04 01:32 | 34.60105 | -119.80236 | 28305 ft | 439 kts | 301° |
| 2026-05-04 01:32 | 34.62089 | -119.83063 | 28661 ft | 439 kts | 301° |
| 2026-05-04 01:32 | 34.64072 | -119.85889 | 28923 ft | 440 kts | 301° |
| 2026-05-04 01:32 | 34.66057 | -119.88721 | 29201 ft | 441 kts | 301° |
| 2026-05-04 01:33 | 34.68044 | -119.91564 | 29503 ft | 441 kts | 301° |
| 2026-05-04 01:33 | 34.70038 | -119.94412 | 29801 ft | 442 kts | 301° |
| 2026-05-04 01:33 | 34.72036 | -119.97268 | 29940 ft | 445 kts | 301° |
| 2026-05-04 01:34 | 34.76018 | -120.02979 | 29981 ft | 439 kts | 300° |
| 2026-05-04 01:34 | 34.79954 | -120.08615 | 30018 ft | 434 kts | 300° |
| 2026-05-04 01:35 | 34.83845 | -120.14251 | 30021 ft | 436 kts | 300° |
| 2026-05-04 01:35 | 34.87767 | -120.19903 | 29994 ft | 438 kts | 300° |
| 2026-05-04 01:36 | 34.91704 | -120.25579 | 30010 ft | 439 kts | 300° |
| 2026-05-04 01:36 | 34.95636 | -120.31272 | 30002 ft | 440 kts | 300° |
| 2026-05-04 01:37 | 34.99557 | -120.36954 | 30021 ft | 438 kts | 300° |
| 2026-05-04 01:37 | 35.03498 | -120.42642 | 30024 ft | 440 kts | 300° |
| 2026-05-04 01:38 | 35.07400 | -120.48332 | 30025 ft | 439 kts | 300° |
| 2026-05-04 01:38 | 35.11335 | -120.54022 | 30011 ft | 439 kts | 300° |
| 2026-05-04 01:39 | 35.15256 | -120.59731 | 29996 ft | 437 kts | 299° |
| 2026-05-04 01:39 | 35.19144 | -120.65426 | 30020 ft | 436 kts | 299° |
| 2026-05-04 01:40 | 35.23032 | -120.71116 | 30002 ft | 436 kts | 299° |
| 2026-05-04 01:40 | 35.26917 | -120.76779 | 30021 ft | 434 kts | 299° |
| 2026-05-04 01:41 | 35.30779 | -120.82446 | 29993 ft | 433 kts | 299° |
| 2026-05-04 01:41 | 35.34608 | -120.88104 | 30019 ft | 432 kts | 299° |
| 2026-05-04 01:42 | 35.38481 | -120.93793 | 30030 ft | 435 kts | 299° |
| 2026-05-04 01:42 | 35.42373 | -120.99501 | 30021 ft | 437 kts | 299° |
| 2026-05-04 01:43 | 35.46255 | -121.05268 | 30009 ft | 441 kts | 299° |
| 2026-05-04 01:43 | 35.50175 | -121.11063 | 30025 ft | 441 kts | 299° |
| 2026-05-04 01:44 | 35.54165 | -121.16801 | 29998 ft | 444 kts | 302° |
| 2026-05-04 01:44 | 35.58175 | -121.22435 | 30028 ft | 434 kts | 298° |
| 2026-05-04 01:45 | 35.62064 | -121.28092 | 30039 ft | 434 kts | 299° |
| 2026-05-04 01:45 | 35.67931 | -121.36626 | 29995 ft | 440 kts | 298° |
| 2026-05-04 01:46 | 35.71841 | -121.42391 | 30029 ft | 443 kts | 300° |
| 2026-05-04 01:46 | 35.75901 | -121.48098 | 30013 ft | 441 kts | 299° |
| 2026-05-04 01:47 | 35.79916 | -121.53820 | 30032 ft | 441 kts | 299° |
| 2026-05-04 01:47 | 35.83850 | -121.59561 | 30037 ft | 434 kts | 299° |
| 2026-05-04 01:48 | 35.87737 | -121.65229 | 30025 ft | 434 kts | 298° |
| 2026-05-04 01:48 | 35.91523 | -121.71054 | 29983 ft | 442 kts | 298° |
| 2026-05-04 01:49 | 35.95535 | -121.76808 | 30020 ft | 440 kts | 299° |
| 2026-05-04 01:49 | 36.00030 | -121.82096 | 29990 ft | 457 kts | 310° |
| 2026-05-04 01:50 | 36.05198 | -121.86728 | 29994 ft | 466 kts | 316° |
| 2026-05-04 01:50 | 36.11013 | -121.90551 | 30016 ft | 477 kts | 321° |
| 2026-05-04 01:51 | 36.17007 | -121.94142 | 30020 ft | 479 kts | 321° |
| 2026-05-04 01:51 | 36.23050 | -121.97738 | 30010 ft | 481 kts | 321° |
| 2026-05-04 01:52 | 36.29022 | -122.01511 | 29987 ft | 480 kts | 321° |
| 2026-05-04 01:52 | 36.34991 | -122.05107 | 30024 ft | 478 kts | 321° |
| 2026-05-04 01:53 | 36.40902 | -122.08923 | 30020 ft | 480 kts | 321° |
| 2026-05-04 01:53 | 36.46879 | -122.12821 | 30016 ft | 484 kts | 322° |
| 2026-05-04 01:54 | 36.52853 | -122.16544 | 29992 ft | 479 kts | 324° |
| 2026-05-04 01:54 | 36.58864 | -122.20230 | 30006 ft | 483 kts | 323° |
| 2026-05-04 01:55 | 36.64835 | -122.24018 | 30026 ft | 486 kts | 324° |
| 2026-05-04 01:55 | 36.70932 | -122.27938 | 30017 ft | 492 kts | 324° |
| 2026-05-04 01:56 | 36.77001 | -122.31853 | 30010 ft | 495 kts | 326° |
| 2026-05-04 01:56 | 36.83085 | -122.35738 | 29996 ft | 489 kts | 327° |
| 2026-05-04 01:57 | 36.89157 | -122.39593 | 30014 ft | 491 kts | 327° |
| 2026-05-04 01:57 | 36.95255 | -122.43492 | 29999 ft | 493 kts | 328° |
| 2026-05-04 01:58 | 37.01387 | -122.47414 | 30019 ft | 496 kts | 329° |
| 2026-05-04 01:58 | 37.07540 | -122.51380 | 30012 ft | 498 kts | 329° |
| 2026-05-04 01:59 | 37.13705 | -122.55351 | 29999 ft | 499 kts | 330° |
| 2026-05-04 01:59 | 37.19871 | -122.59330 | 30008 ft | 498 kts | 331° |
| 2026-05-04 02:00 | 37.26039 | -122.63310 | 30017 ft | 499 kts | 331° |
| 2026-05-04 02:00 | 37.32248 | -122.67207 | 29999 ft | 499 kts | 336° |
| 2026-05-04 02:01 | 37.38695 | -122.70460 | 30007 ft | 499 kts | 339° |
| 2026-05-04 02:01 | 37.45185 | -122.73574 | 30001 ft | 499 kts | 339° |
| 2026-05-04 02:02 | 37.51658 | -122.76749 | 30000 ft | 499 kts | 339° |
| 2026-05-04 02:02 | 37.58112 | -122.79978 | 29996 ft | 499 kts | 339° |
| 2026-05-04 02:03 | 37.64561 | -122.83226 | 29999 ft | 499 kts | 339° |
| 2026-05-04 02:03 | 37.71010 | -122.86473 | 30002 ft | 499 kts | 340° |
| 2026-05-04 02:04 | 37.77462 | -122.89725 | 29993 ft | 499 kts | 340° |
| 2026-05-04 02:04 | 37.83870 | -122.92961 | 29988 ft | 499 kts | 340° |
| 2026-05-04 02:05 | 37.90315 | -122.96220 | 29990 ft | 499 kts | 340° |
| 2026-05-04 02:05 | 37.96766 | -122.99488 | 29982 ft | 499 kts | 340° |
| 2026-05-04 02:06 | 38.03213 | -123.02763 | 29984 ft | 498 kts | 341° |
| 2026-05-04 02:06 | 38.09629 | -123.06031 | 29988 ft | 496 kts | 343° |
| 2026-05-04 02:07 | 38.16041 | -123.09298 | 29984 ft | 496 kts | 343° |
| 2026-05-04 02:07 | 38.21355 | -123.12036 | 29976 ft | 497 kts | 341° |
| 2026-05-04 02:08 | 38.27455 | -123.16315 | 29985 ft | 504 kts | 333° |
| 2026-05-04 02:08 | 38.33358 | -123.21121 | 29979 ft | 504 kts | 333° |
| 2026-05-04 02:09 | 38.39285 | -123.25920 | 29990 ft | 505 kts | 333° |
| 2026-05-04 02:09 | 38.45235 | -123.30699 | 29991 ft | 506 kts | 333° |
| 2026-05-04 02:10 | 38.51194 | -123.35478 | 29989 ft | 506 kts | 333° |
| 2026-05-04 02:10 | 38.57158 | -123.40267 | 29981 ft | 507 kts | 333° |
| 2026-05-04 02:11 | 38.63126 | -123.45075 | 29982 ft | 507 kts | 333° |
| 2026-05-04 02:11 | 38.69093 | -123.49890 | 29979 ft | 507 kts | 333° |
| 2026-05-04 02:12 | 38.75013 | -123.54680 | 29981 ft | 507 kts | 333° |
| 2026-05-04 02:12 | 38.80968 | -123.59510 | 29985 ft | 506 kts | 333° |
| 2026-05-04 02:13 | 38.86825 | -123.64265 | 29995 ft | 506 kts | 333° |
| 2026-05-04 02:13 | 38.92289 | -123.68708 | 29990 ft | 505 kts | 333° |
| 2026-05-04 02:14 | 38.98055 | -123.73918 | 29982 ft | 513 kts | 321° |
| 2026-05-04 02:14 | 39.02522 | -123.81166 | 29998 ft | 525 kts | 302° |
| 2026-05-04 02:15 | 39.05709 | -123.89637 | 30020 ft | 527 kts | 298° |
| 2026-05-04 02:15 | 39.08830 | -123.98183 | 30008 ft | 528 kts | 298° |
| 2026-05-04 02:16 | 39.12000 | -124.06716 | 30001 ft | 529 kts | 299° |
| 2026-05-04 02:16 | 39.15221 | -124.15271 | 30007 ft | 531 kts | 300° |
| 2026-05-04 02:17 | 39.18447 | -124.23844 | 30000 ft | 532 kts | 299° |
| 2026-05-04 02:17 | 39.21664 | -124.32441 | 29998 ft | 532 kts | 299° |
| 2026-05-04 02:18 | 39.24854 | -124.40992 | 29999 ft | 532 kts | 299° |
| 2026-05-04 02:18 | 39.28077 | -124.49655 | 29998 ft | 532 kts | 299° |
| 2026-05-04 02:19 | 39.31243 | -124.58198 | 30013 ft | 531 kts | 299° |
| 2026-05-04 02:19 | 39.34429 | -124.66810 | 30007 ft | 531 kts | 299° |
| 2026-05-04 02:20 | 39.37607 | -124.75427 | 29995 ft | 531 kts | 299° |
| 2026-05-04 02:20 | 39.40774 | -124.84045 | 29999 ft | 530 kts | 299° |
| 2026-05-04 02:21 | 39.43933 | -124.92664 | 29999 ft | 530 kts | 299° |
| 2026-05-04 02:21 | 39.47087 | -125.01288 | 29998 ft | 530 kts | 299° |
| 2026-05-04 02:22 | 39.50230 | -125.09915 | 30000 ft | 530 kts | 299° |
| 2026-05-04 02:22 | 39.53372 | -125.18559 | 30002 ft | 530 kts | 298° |
| 2026-05-04 02:23 | 39.56505 | -125.27207 | 29998 ft | 530 kts | 298° |
| 2026-05-04 02:23 | 39.59631 | -125.35867 | 30001 ft | 531 kts | 298° |
| 2026-05-04 02:24 | 39.62755 | -125.44530 | 29996 ft | 530 kts | 298° |
| 2026-05-04 02:24 | 39.65867 | -125.53192 | 30001 ft | 529 kts | 298° |
| 2026-05-04 02:25 | 39.68961 | -125.61850 | 29998 ft | 528 kts | 298° |
| 2026-05-04 02:25 | 39.72054 | -125.70508 | 30000 ft | 528 kts | 298° |
| 2026-05-04 02:26 | 39.75132 | -125.79158 | 29999 ft | 527 kts | 298° |
| 2026-05-04 02:26 | 39.78200 | -125.87803 | 29999 ft | 526 kts | 298° |
| 2026-05-04 02:27 | 39.81255 | -125.96438 | 30001 ft | 525 kts | 298° |
| 2026-05-04 02:27 | 39.84302 | -126.05077 | 30001 ft | 525 kts | 298° |
| 2026-05-04 02:28 | 39.87343 | -126.13723 | 29999 ft | 525 kts | 298° |
| 2026-05-04 02:28 | 39.90355 | -126.22315 | 29999 ft | 525 kts | 297° |
| 2026-05-04 02:29 | 39.93405 | -126.31035 | 30000 ft | 526 kts | 297° |
| 2026-05-04 02:29 | 39.96428 | -126.39708 | 29996 ft | 526 kts | 297° |
| 2026-05-04 02:30 | 39.99429 | -126.48352 | 30003 ft | 527 kts | 297° |
| 2026-05-04 02:30 | 40.02322 | -126.57142 | 30001 ft | 528 kts | 294° |
| 2026-05-04 02:31 | 40.04946 | -126.66081 | 30001 ft | 527 kts | 294° |
| 2026-05-04 02:31 | 40.07578 | -126.74988 | 29997 ft | 525 kts | 294° |
| 2026-05-04 02:32 | 40.10248 | -126.83845 | 29998 ft | 523 kts | 294° |
| 2026-05-04 02:32 | 40.12909 | -126.92681 | 30001 ft | 522 kts | 294° |
| 2026-05-04 02:33 | 40.15554 | -127.01516 | 29999 ft | 522 kts | 294° |
| 2026-05-04 02:33 | 40.18193 | -127.10346 | 29998 ft | 522 kts | 294° |
| 2026-05-04 02:34 | 40.20833 | -127.19188 | 30002 ft | 522 kts | 294° |
| 2026-05-04 02:34 | 40.23463 | -127.28041 | 29997 ft | 522 kts | 294° |
| 2026-05-04 02:35 | 40.26090 | -127.36913 | 30002 ft | 523 kts | 294° |
| 2026-05-04 02:35 | 40.28711 | -127.45806 | 30001 ft | 524 kts | 293° |
| 2026-05-04 02:36 | 40.31329 | -127.54712 | 29999 ft | 524 kts | 293° |
| 2026-05-04 02:36 | 40.33943 | -127.63637 | 29998 ft | 525 kts | 293° |
| 2026-05-04 02:37 | 40.36552 | -127.72565 | 30001 ft | 525 kts | 293° |
| 2026-05-04 02:37 | 40.39155 | -127.81507 | 29998 ft | 525 kts | 293° |
| 2026-05-04 02:38 | 40.41752 | -127.90460 | 29999 ft | 525 kts | 293° |
| 2026-05-04 02:38 | 40.44341 | -127.99418 | 29999 ft | 525 kts | 293° |
| 2026-05-04 02:39 | 40.46906 | -128.08324 | 30002 ft | 525 kts | 293° |
| 2026-05-04 02:39 | 40.49478 | -128.17283 | 29997 ft | 524 kts | 293° |
| 2026-05-04 02:40 | 40.52039 | -128.26244 | 30018 ft | 523 kts | 293° |
| 2026-05-04 02:40 | 40.54593 | -128.35201 | 30008 ft | 523 kts | 293° |
| 2026-05-04 02:41 | 40.57139 | -128.44157 | 30003 ft | 522 kts | 292° |
| 2026-05-04 02:41 | 40.59671 | -128.53099 | 30001 ft | 521 kts | 292° |
| 2026-05-04 02:42 | 40.62189 | -128.62033 | 30022 ft | 520 kts | 292° |
| 2026-05-04 02:42 | 40.64695 | -128.70949 | 30016 ft | 519 kts | 292° |
| 2026-05-04 02:43 | 40.67191 | -128.79863 | 29995 ft | 518 kts | 292° |
| 2026-05-04 02:43 | 40.69677 | -128.88765 | 30021 ft | 517 kts | 292° |
| 2026-05-04 02:44 | 40.72154 | -128.97660 | 29986 ft | 517 kts | 292° |
| 2026-05-04 02:44 | 40.74622 | -129.06560 | 29992 ft | 516 kts | 292° |
| 2026-05-04 02:45 | 40.77078 | -129.15450 | 29988 ft | 516 kts | 292° |
| 2026-05-04 02:45 | 40.79522 | -129.24343 | 29989 ft | 515 kts | 292° |
| 2026-05-04 02:46 | 40.81961 | -129.33234 | 29990 ft | 515 kts | 292° |
| 2026-05-04 02:46 | 40.84397 | -129.42142 | 29993 ft | 516 kts | 292° |
| 2026-05-04 02:47 | 40.86831 | -129.51072 | 29989 ft | 517 kts | 292° |
| 2026-05-04 02:47 | 40.89254 | -129.60013 | 29992 ft | 517 kts | 292° |
| 2026-05-04 02:48 | 40.91671 | -129.68948 | 29988 ft | 516 kts | 292° |
| 2026-05-04 02:48 | 40.94064 | -129.77821 | 29990 ft | 515 kts | 292° |
| 2026-05-04 02:49 | 40.96464 | -129.86755 | 29991 ft | 515 kts | 292° |
| 2026-05-04 02:49 | 40.98849 | -129.95686 | 29988 ft | 515 kts | 292° |
| 2026-05-04 02:50 | 41.01209 | -130.04623 | 29999 ft | 514 kts | 291° |
| 2026-05-04 02:50 | 41.03451 | -130.13622 | 29998 ft | 514 kts | 290° |
| 2026-05-04 02:51 | 41.05663 | -130.22630 | 29998 ft | 514 kts | 290° |
| 2026-05-04 02:51 | 41.07878 | -130.31624 | 29999 ft | 513 kts | 290° |
| 2026-05-04 02:52 | 41.10097 | -130.40620 | 30000 ft | 514 kts | 290° |
| 2026-05-04 02:52 | 41.12313 | -130.49626 | 30002 ft | 514 kts | 290° |
| 2026-05-04 02:53 | 41.14522 | -130.58639 | 29998 ft | 514 kts | 290° |
| 2026-05-04 02:53 | 41.16725 | -130.67658 | 30000 ft | 514 kts | 290° |
| 2026-05-04 02:54 | 41.18920 | -130.76681 | 30000 ft | 514 kts | 290° |
| 2026-05-04 02:54 | 41.21104 | -130.85709 | 30000 ft | 514 kts | 290° |
| 2026-05-04 02:55 | 41.24370 | -130.99259 | 29999 ft | 513 kts | 290° |
| 2026-05-04 02:56 | 41.26539 | -131.08297 | 29999 ft | 513 kts | 290° |
| 2026-05-04 02:56 | 41.28698 | -131.17334 | 29999 ft | 513 kts | 290° |
| 2026-05-04 02:57 | 41.30490 | -131.24851 | 29999 ft | 513 kts | 290° |
| 2026-05-04 02:57 | 41.32636 | -131.33908 | 30001 ft | 513 kts | 290° |
| 2026-05-04 02:58 | 41.34775 | -131.42970 | 29999 ft | 513 kts | 290° |
| 2026-05-04 02:58 | 41.36907 | -131.52025 | 29999 ft | 513 kts | 290° |
| 2026-05-04 02:59 | 41.39034 | -131.61093 | 29997 ft | 513 kts | 291° |
| 2026-05-04 02:59 | 41.41148 | -131.70161 | 29999 ft | 513 kts | 291° |
| 2026-05-04 03:00 | 41.43256 | -131.79236 | 30011 ft | 513 kts | 291° |
| 2026-05-04 03:00 | 41.45358 | -131.88315 | 30008 ft | 512 kts | 291° |
| 2026-05-04 03:01 | 41.47452 | -131.97387 | 30007 ft | 512 kts | 290° |
| 2026-05-04 03:01 | 41.49534 | -132.06453 | 30028 ft | 511 kts | 291° |
| 2026-05-04 03:02 | 41.51605 | -132.15507 | 30008 ft | 510 kts | 291° |
| 2026-05-04 03:02 | 41.53663 | -132.24552 | 30015 ft | 509 kts | 290° |
| 2026-05-04 03:03 | 41.55701 | -132.33524 | 30011 ft | 509 kts | 290° |
| 2026-05-04 03:03 | 41.57748 | -132.42565 | 30013 ft | 509 kts | 290° |
| 2026-05-04 03:04 | 41.59784 | -132.51618 | 30023 ft | 509 kts | 290° |
| 2026-05-04 03:04 | 41.61813 | -132.60681 | 30027 ft | 509 kts | 290° |
| 2026-05-04 03:05 | 41.63837 | -132.69751 | 30027 ft | 510 kts | 290° |
| 2026-05-04 03:05 | 41.65858 | -132.78835 | 30029 ft | 510 kts | 290° |
| 2026-05-04 03:06 | 41.67871 | -132.87929 | 30029 ft | 510 kts | 290° |
| 2026-05-04 03:06 | 41.69879 | -132.97037 | 30029 ft | 510 kts | 290° |
| 2026-05-04 03:07 | 41.71876 | -133.06141 | 30022 ft | 510 kts | 290° |
| 2026-05-04 03:07 | 41.73866 | -133.15253 | 30023 ft | 510 kts | 290° |
| 2026-05-04 03:08 | 41.75847 | -133.24357 | 30020 ft | 509 kts | 291° |
| 2026-05-04 03:08 | 41.77822 | -133.33465 | 30029 ft | 509 kts | 291° |
| 2026-05-04 03:09 | 41.79788 | -133.42580 | 30027 ft | 509 kts | 291° |
| 2026-05-04 03:09 | 41.81750 | -133.51703 | 30028 ft | 509 kts | 291° |
| 2026-05-04 03:10 | 41.83700 | -133.60825 | 30038 ft | 509 kts | 291° |
| 2026-05-04 03:10 | 41.85644 | -133.69953 | 30042 ft | 509 kts | 291° |
| 2026-05-04 03:11 | 41.87585 | -133.79086 | 30034 ft | 509 kts | 291° |
| 2026-05-04 03:11 | 41.89516 | -133.88233 | 30033 ft | 509 kts | 291° |
| 2026-05-04 03:12 | 41.91425 | -133.97323 | 30036 ft | 509 kts | 291° |
| 2026-05-04 03:12 | 41.93344 | -134.06481 | 30036 ft | 510 kts | 291° |
| 2026-05-04 03:13 | 41.95255 | -134.15654 | 30036 ft | 510 kts | 291° |
| 2026-05-04 03:13 | 41.97157 | -134.24836 | 30033 ft | 510 kts | 291° |
| 2026-05-04 03:14 | 41.99056 | -134.34023 | 30037 ft | 510 kts | 291° |
| 2026-05-04 03:14 | 42.00947 | -134.43208 | 30032 ft | 510 kts | 291° |
| 2026-05-04 03:15 | 42.02830 | -134.52402 | 30035 ft | 510 kts | 291° |
| 2026-05-04 03:15 | 42.04703 | -134.61597 | 30041 ft | 510 kts | 291° |
| 2026-05-04 03:16 | 42.06573 | -134.70814 | 30039 ft | 510 kts | 291° |
| 2026-05-04 03:16 | 42.08437 | -134.80041 | 30168 ft | 513 kts | 290° |
| 2026-05-04 03:16 | 42.09370 | -134.84675 | 30499 ft | 512 kts | 291° |
| 2026-05-04 03:17 | 42.10296 | -134.89288 | 30882 ft | 510 kts | 291° |
| 2026-05-04 03:17 | 42.11219 | -134.93885 | 31266 ft | 507 kts | 291° |
| 2026-05-04 03:17 | 42.12135 | -134.98468 | 31612 ft | 506 kts | 291° |
| 2026-05-04 03:17 | 42.13046 | -135.03043 | 31906 ft | 505 kts | 291° |
| 2026-05-04 03:18 | 42.13956 | -135.07617 | 31992 ft | 507 kts | 291° |
| 2026-05-04 03:18 | 42.15770 | -135.16774 | 32043 ft | 505 kts | 291° |
| 2026-05-04 03:19 | 42.17558 | -135.25831 | 32046 ft | 502 kts | 291° |
| 2026-05-04 03:19 | 42.19347 | -135.34918 | 32046 ft | 501 kts | 291° |
| 2026-05-04 03:20 | 42.21121 | -135.43996 | 32047 ft | 500 kts | 291° |
| 2026-05-04 03:20 | 42.22884 | -135.53067 | 32048 ft | 500 kts | 291° |
| 2026-05-04 03:21 | 42.24647 | -135.62133 | 32044 ft | 499 kts | 291° |
| 2026-05-04 03:21 | 42.26399 | -135.71205 | 32046 ft | 500 kts | 291° |
| 2026-05-04 03:22 | 42.28143 | -135.80294 | 32044 ft | 500 kts | 291° |
| 2026-05-04 03:22 | 42.29882 | -135.89395 | 32036 ft | 501 kts | 291° |
| 2026-05-04 03:23 | 42.31613 | -135.98513 | 32037 ft | 501 kts | 290° |
| 2026-05-04 03:23 | 42.33342 | -136.07634 | 32048 ft | 501 kts | 290° |
| 2026-05-04 03:24 | 42.35063 | -136.16753 | 32048 ft | 500 kts | 290° |
| 2026-05-04 03:24 | 42.36771 | -136.25860 | 32092 ft | 498 kts | 290° |
| 2026-05-04 03:25 | 42.38464 | -136.34936 | 32129 ft | 498 kts | 290° |
| 2026-05-04 03:25 | 42.40152 | -136.44023 | 32141 ft | 498 kts | 290° |
| 2026-05-04 03:26 | 42.41829 | -136.53111 | 32139 ft | 498 kts | 289° |
| 2026-05-04 03:26 | 42.43504 | -136.62199 | 32141 ft | 498 kts | 289° |
| 2026-05-04 03:27 | 42.45170 | -136.71287 | 32137 ft | 497 kts | 289° |
| 2026-05-04 03:27 | 42.46827 | -136.80387 | 32131 ft | 498 kts | 289° |
| 2026-05-04 03:28 | 42.48476 | -136.89484 | 32121 ft | 497 kts | 288° |
| 2026-05-04 03:28 | 42.50115 | -136.98570 | 32118 ft | 496 kts | 288° |
| 2026-05-04 03:29 | 42.51742 | -137.07636 | 32114 ft | 495 kts | 288° |
| 2026-05-04 03:29 | 42.53358 | -137.16682 | 32123 ft | 493 kts | 288° |
| 2026-05-04 03:30 | 42.54965 | -137.25715 | 32123 ft | 492 kts | 287° |
| 2026-05-04 03:30 | 42.56561 | -137.34730 | 32123 ft | 491 kts | 287° |
| 2026-05-04 03:31 | 42.58138 | -137.43676 | 32125 ft | 491 kts | 287° |
| 2026-05-04 03:31 | 42.59712 | -137.52678 | 32113 ft | 490 kts | 287° |
| 2026-05-04 03:32 | 42.61282 | -137.61672 | 32116 ft | 489 kts | 287° |
| 2026-05-04 03:32 | 42.62844 | -137.70668 | 32127 ft | 489 kts | 287° |
| 2026-05-04 03:33 | 42.64396 | -137.79669 | 32130 ft | 490 kts | 287° |
| 2026-05-04 03:33 | 42.65944 | -137.88682 | 32129 ft | 490 kts | 287° |
| 2026-05-04 03:34 | 42.67485 | -137.97705 | 32129 ft | 490 kts | 286° |
| 2026-05-04 03:34 | 42.69020 | -138.06739 | 32140 ft | 490 kts | 286° |
| 2026-05-04 03:35 | 42.70547 | -138.15766 | 32135 ft | 490 kts | 285° |
| 2026-05-04 03:35 | 42.72063 | -138.24778 | 32130 ft | 489 kts | 285° |
| 2026-05-04 03:36 | 42.73571 | -138.33784 | 32129 ft | 488 kts | 285° |
| 2026-05-04 03:36 | 42.75069 | -138.42772 | 32132 ft | 487 kts | 285° |
| 2026-05-04 03:37 | 42.76554 | -138.51755 | 32128 ft | 486 kts | 285° |
| 2026-05-04 03:37 | 42.78035 | -138.60740 | 32130 ft | 487 kts | 285° |
| 2026-05-04 03:38 | 42.79511 | -138.69733 | 32126 ft | 487 kts | 285° |
| 2026-05-04 03:38 | 42.80979 | -138.78734 | 32134 ft | 487 kts | 284° |
| 2026-05-04 03:39 | 42.82444 | -138.87747 | 32139 ft | 488 kts | 284° |
| 2026-05-04 03:39 | 42.83897 | -138.96769 | 32137 ft | 488 kts | 284° |
| 2026-05-04 03:40 | 42.85344 | -139.05796 | 32135 ft | 488 kts | 284° |
| 2026-05-04 03:40 | 42.86786 | -139.14826 | 32137 ft | 487 kts | 284° |
| 2026-05-04 03:41 | 42.88220 | -139.23855 | 32135 ft | 487 kts | 283° |
| 2026-05-04 03:41 | 42.89645 | -139.32886 | 32137 ft | 487 kts | 283° |
| 2026-05-04 03:42 | 42.91055 | -139.41856 | 32138 ft | 487 kts | 283° |
| 2026-05-04 03:42 | 42.92464 | -139.50873 | 32133 ft | 486 kts | 283° |
| 2026-05-04 03:43 | 42.93864 | -139.59884 | 32135 ft | 486 kts | 283° |
| 2026-05-04 03:43 | 42.95257 | -139.68910 | 32137 ft | 486 kts | 283° |
| 2026-05-04 03:44 | 42.96645 | -139.77951 | 32121 ft | 487 kts | 283° |
| 2026-05-04 03:44 | 42.98032 | -139.87016 | 32121 ft | 488 kts | 283° |
| 2026-05-04 03:45 | 42.99425 | -139.96072 | 32105 ft | 487 kts | 285° |
| 2026-05-04 03:45 | 43.01614 | -140.04787 | 32110 ft | 485 kts | 296° |
| 2026-05-04 03:46 | 43.04607 | -140.13039 | 32113 ft | 484 kts | 297° |
| 2026-05-04 03:46 | 43.07623 | -140.21275 | 32104 ft | 484 kts | 296° |
| 2026-05-04 03:47 | 43.10102 | -140.28139 | 32104 ft | 484 kts | 296° |
| 2026-05-04 03:47 | 43.13060 | -140.36418 | 32103 ft | 485 kts | 296° |
| 2026-05-04 03:48 | 43.16008 | -140.44706 | 32123 ft | 484 kts | 296° |
| 2026-05-04 03:48 | 43.18951 | -140.53006 | 32119 ft | 484 kts | 296° |
| 2026-05-04 03:49 | 43.21885 | -140.61310 | 32106 ft | 484 kts | 295° |
| 2026-05-04 03:49 | 43.24814 | -140.69620 | 32124 ft | 484 kts | 295° |
| 2026-05-04 03:50 | 43.27740 | -140.77941 | 32122 ft | 484 kts | 295° |
| 2026-05-04 03:50 | 43.30659 | -140.86266 | 32120 ft | 484 kts | 295° |
| 2026-05-04 03:51 | 43.33574 | -140.94611 | 32118 ft | 484 kts | 295° |
| 2026-05-04 03:51 | 43.36463 | -141.02906 | 32123 ft | 485 kts | 295° |
| 2026-05-04 03:52 | 43.39366 | -141.11267 | 32120 ft | 485 kts | 294° |
| 2026-05-04 03:52 | 43.42261 | -141.19637 | 32111 ft | 485 kts | 294° |
| 2026-05-04 03:53 | 43.45153 | -141.28014 | 32115 ft | 484 kts | 294° |
| 2026-05-04 03:53 | 43.48036 | -141.36388 | 32118 ft | 484 kts | 294° |
| 2026-05-04 03:54 | 43.50911 | -141.44771 | 32115 ft | 484 kts | 294° |
| 2026-05-04 03:54 | 43.53778 | -141.53160 | 32129 ft | 484 kts | 294° |
| 2026-05-04 03:55 | 43.56641 | -141.61561 | 32112 ft | 484 kts | 293° |
| 2026-05-04 03:55 | 43.59498 | -141.69969 | 32115 ft | 484 kts | 293° |
| 2026-05-04 03:56 | 43.62350 | -141.78383 | 32124 ft | 484 kts | 293° |
| 2026-05-04 03:56 | 43.65194 | -141.86806 | 32132 ft | 484 kts | 293° |
| 2026-05-04 03:57 | 43.68034 | -141.95242 | 32122 ft | 484 kts | 292° |
| 2026-05-04 03:57 | 43.70868 | -142.03684 | 32134 ft | 485 kts | 292° |
| 2026-05-04 03:58 | 43.75108 | -142.16368 | 32127 ft | 484 kts | 292° |
| 2026-05-04 03:58 | 43.77926 | -142.24835 | 32133 ft | 484 kts | 292° |
| 2026-05-04 03:59 | 43.80739 | -142.33306 | 32127 ft | 484 kts | 292° |
| 2026-05-04 03:59 | 43.83541 | -142.41776 | 32129 ft | 484 kts | 292° |
| 2026-05-04 04:00 | 43.86317 | -142.50195 | 32130 ft | 484 kts | 292° |
| 2026-05-04 04:00 | 43.89107 | -142.58680 | 32124 ft | 484 kts | 292° |
| 2026-05-04 04:01 | 43.91891 | -142.67179 | 32122 ft | 484 kts | 292° |
| 2026-05-04 04:01 | 43.94672 | -142.75685 | 32114 ft | 483 kts | 291° |
| 2026-05-04 04:02 | 43.97438 | -142.84179 | 32124 ft | 483 kts | 291° |
| 2026-05-04 04:02 | 44.00194 | -142.92681 | 32116 ft | 483 kts | 291° |
| 2026-05-04 04:03 | 44.02949 | -143.01193 | 32119 ft | 483 kts | 290° |
| 2026-05-04 04:03 | 44.05703 | -143.09719 | 32122 ft | 484 kts | 290° |
| 2026-05-04 04:04 | 44.08450 | -143.18265 | 32131 ft | 484 kts | 290° |
| 2026-05-04 04:04 | 44.11190 | -143.26817 | 32125 ft | 484 kts | 290° |
| 2026-05-04 04:05 | 44.13927 | -143.35388 | 32127 ft | 485 kts | 290° |
| 2026-05-04 04:05 | 44.16659 | -143.43972 | 32133 ft | 485 kts | 290° |
| 2026-05-04 04:06 | 44.19380 | -143.52556 | 32133 ft | 484 kts | 289° |
| 2026-05-04 04:06 | 44.22095 | -143.61137 | 32133 ft | 484 kts | 289° |
| 2026-05-04 04:07 | 44.24803 | -143.69719 | 32129 ft | 483 kts | 289° |
| 2026-05-04 04:07 | 44.27497 | -143.78290 | 32125 ft | 482 kts | 289° |
| 2026-05-04 04:08 | 44.30158 | -143.86796 | 32125 ft | 481 kts | 289° |
| 2026-05-04 04:08 | 44.32834 | -143.95367 | 32135 ft | 481 kts | 289° |
| 2026-05-04 04:09 | 44.35501 | -144.03947 | 32129 ft | 482 kts | 289° |
| 2026-05-04 04:09 | 44.38166 | -144.12544 | 32134 ft | 482 kts | 289° |
| 2026-05-04 04:10 | 44.40829 | -144.21164 | 32132 ft | 483 kts | 288° |
| 2026-05-04 04:10 | 44.43490 | -144.29805 | 32132 ft | 484 kts | 288° |
| 2026-05-04 04:11 | 44.46152 | -144.38467 | 32133 ft | 485 kts | 288° |
| 2026-05-04 04:11 | 44.48810 | -144.47153 | 32129 ft | 486 kts | 288° |
| 2026-05-04 04:12 | 44.51466 | -144.55865 | 32132 ft | 487 kts | 288° |
| 2026-05-04 04:12 | 44.54119 | -144.64601 | 32135 ft | 488 kts | 287° |
| 2026-05-04 04:13 | 44.56771 | -144.73362 | 32128 ft | 488 kts | 287° |
| 2026-05-04 04:13 | 44.59421 | -144.82143 | 32126 ft | 489 kts | 287° |
| 2026-05-04 04:14 | 44.62070 | -144.90950 | 32130 ft | 490 kts | 287° |
| 2026-05-04 04:14 | 44.64718 | -144.99787 | 32125 ft | 491 kts | 287° |
| 2026-05-04 04:15 | 44.67344 | -145.08579 | 32168 ft | 492 kts | 286° |
| 2026-05-04 04:15 | 44.69984 | -145.17453 | 32178 ft | 493 kts | 286° |
| 2026-05-04 04:16 | 44.72625 | -145.26356 | 32178 ft | 494 kts | 286° |
| 2026-05-04 04:16 | 44.75265 | -145.35292 | 32161 ft | 495 kts | 286° |
| 2026-05-04 04:17 | 44.77904 | -145.44257 | 32157 ft | 496 kts | 285° |
| 2026-05-04 04:17 | 44.80537 | -145.53227 | 32155 ft | 496 kts | 285° |
| 2026-05-04 04:18 | 44.83163 | -145.62208 | 32138 ft | 496 kts | 285° |
| 2026-05-04 04:18 | 44.85780 | -145.71200 | 32123 ft | 496 kts | 285° |
| 2026-05-04 04:19 | 44.88398 | -145.80218 | 32076 ft | 497 kts | 285° |
| 2026-05-04 04:19 | 44.91012 | -145.89249 | 32073 ft | 497 kts | 285° |
| 2026-05-04 04:20 | 44.93617 | -145.98286 | 32075 ft | 497 kts | 285° |
| 2026-05-04 04:20 | 44.96212 | -146.07323 | 32069 ft | 497 kts | 284° |
| 2026-05-04 04:21 | 44.98800 | -146.16374 | 32070 ft | 497 kts | 283° |
| 2026-05-04 04:21 | 45.01387 | -146.25460 | 32078 ft | 499 kts | 283° |
| 2026-05-04 04:22 | 45.03977 | -146.34579 | 32078 ft | 501 kts | 283° |
| 2026-05-04 04:22 | 45.06566 | -146.43735 | 32061 ft | 502 kts | 283° |
| 2026-05-04 04:23 | 45.09155 | -146.52924 | 32056 ft | 503 kts | 283° |
| 2026-05-04 04:23 | 45.11742 | -146.62130 | 32056 ft | 503 kts | 283° |
| 2026-05-04 04:24 | 45.14303 | -146.71276 | 32055 ft | 503 kts | 282° |
| 2026-05-04 04:24 | 45.16869 | -146.80485 | 32055 ft | 502 kts | 282° |
| 2026-05-04 04:25 | 45.19422 | -146.89690 | 32054 ft | 502 kts | 282° |
| 2026-05-04 04:25 | 45.21967 | -146.98898 | 32048 ft | 501 kts | 282° |
| 2026-05-04 04:26 | 45.24512 | -147.08121 | 32058 ft | 502 kts | 281° |
| 2026-05-04 04:26 | 45.27044 | -147.17354 | 32056 ft | 502 kts | 281° |
| 2026-05-04 04:27 | 45.29575 | -147.26610 | 32057 ft | 503 kts | 281° |
| 2026-05-04 04:27 | 45.32100 | -147.35886 | 32063 ft | 504 kts | 281° |
| 2026-05-04 04:28 | 45.34625 | -147.45192 | 32067 ft | 505 kts | 280° |
| 2026-05-04 04:28 | 45.37147 | -147.54526 | 32063 ft | 506 kts | 280° |
| 2026-05-04 04:29 | 45.39670 | -147.63890 | 32054 ft | 508 kts | 280° |
| 2026-05-04 04:29 | 45.42186 | -147.73284 | 32044 ft | 508 kts | 279° |
| 2026-05-04 04:30 | 45.44701 | -147.82693 | 32046 ft | 509 kts | 279° |
| 2026-05-04 04:30 | 45.47191 | -147.92049 | 32055 ft | 509 kts | 279° |
| 2026-05-04 04:31 | 45.49695 | -148.01494 | 32057 ft | 509 kts | 279° |
| 2026-05-04 04:31 | 45.52191 | -148.10956 | 32054 ft | 510 kts | 278° |
| 2026-05-04 04:32 | 45.54681 | -148.20440 | 32059 ft | 511 kts | 278° |
| 2026-05-04 04:32 | 45.57169 | -148.29944 | 32054 ft | 511 kts | 278° |
| 2026-05-04 04:33 | 45.59652 | -148.39458 | 32057 ft | 512 kts | 278° |
| 2026-05-04 04:33 | 45.62125 | -148.48979 | 32056 ft | 511 kts | 278° |
| 2026-05-04 04:34 | 45.64590 | -148.58510 | 32056 ft | 511 kts | 278° |
| 2026-05-04 04:34 | 45.67046 | -148.68044 | 32052 ft | 511 kts | 278° |
| 2026-05-04 04:35 | 45.69493 | -148.77583 | 32055 ft | 511 kts | 278° |
| 2026-05-04 04:35 | 45.71932 | -148.87135 | 32055 ft | 511 kts | 277° |
| 2026-05-04 04:36 | 45.74360 | -148.96694 | 32056 ft | 512 kts | 277° |
| 2026-05-04 04:36 | 45.76792 | -149.06281 | 32050 ft | 513 kts | 277° |
| 2026-05-04 04:37 | 45.81235 | -149.23934 | 32054 ft | 516 kts | 277° |
| 2026-05-04 04:38 | 45.83664 | -149.33640 | 32055 ft | 518 kts | 276° |
| 2026-05-04 04:38 | 45.86093 | -149.43395 | 32055 ft | 521 kts | 276° |
| 2026-05-04 04:39 | 45.88534 | -149.53226 | 32060 ft | 525 kts | 276° |
| 2026-05-04 04:39 | 45.90981 | -149.63133 | 32061 ft | 528 kts | 276° |
| 2026-05-04 04:40 | 45.93435 | -149.73109 | 32056 ft | 531 kts | 276° |
| 2026-05-04 04:40 | 45.95893 | -149.83137 | 32056 ft | 533 kts | 276° |
| 2026-05-04 04:41 | 45.98351 | -149.93208 | 32056 ft | 534 kts | 276° |
| 2026-05-04 04:41 | 46.00809 | -150.03301 | 32056 ft | 535 kts | 276° |
| 2026-05-04 04:42 | 46.03337 | -150.13385 | 32056 ft | 536 kts | 277° |
| 2026-05-04 04:42 | 46.05880 | -150.23445 | 32055 ft | 534 kts | 277° |
| 2026-05-04 04:43 | 46.08396 | -150.33501 | 32052 ft | 533 kts | 277° |
| 2026-05-04 04:43 | 46.10894 | -150.43550 | 32052 ft | 532 kts | 277° |
| 2026-05-04 04:44 | 46.13374 | -150.53591 | 32059 ft | 531 kts | 277° |
| 2026-05-04 04:44 | 46.15841 | -150.63638 | 32052 ft | 532 kts | 277° |
| 2026-05-04 04:45 | 46.18284 | -150.73633 | 32060 ft | 532 kts | 278° |
| 2026-05-04 04:47 | 46.26851 | -151.08967 | 32040 ft | 532 kts | 279° |
| 2026-05-04 04:47 | 46.29275 | -151.19061 | 32035 ft | 530 kts | 279° |
| 2026-05-04 04:48 | 46.31680 | -151.29131 | 32035 ft | 529 kts | 279° |
| 2026-05-04 04:49 | 46.37619 | -151.54184 | 32031 ft | 524 kts | 280° |
| 2026-05-04 04:49 | 46.39961 | -151.64167 | 32020 ft | 523 kts | 280° |
| 2026-05-04 04:50 | 46.42293 | -151.74132 | 32018 ft | 522 kts | 280° |
| 2026-05-04 04:50 | 46.44614 | -151.84093 | 32019 ft | 521 kts | 280° |
| 2026-05-04 04:51 | 46.46911 | -151.93995 | 32020 ft | 521 kts | 280° |
| 2026-05-04 04:51 | 46.49225 | -152.04030 | 32019 ft | 521 kts | 280° |
| 2026-05-04 04:52 | 46.51503 | -152.13955 | 32020 ft | 522 kts | 281° |
| 2026-05-04 04:52 | 46.53790 | -152.23957 | 32018 ft | 522 kts | 281° |
| 2026-05-04 04:53 | 46.56071 | -152.33974 | 32019 ft | 522 kts | 281° |
| 2026-05-04 04:53 | 46.58344 | -152.44008 | 32018 ft | 523 kts | 281° |
| 2026-05-04 04:54 | 46.60613 | -152.54074 | 32017 ft | 524 kts | 281° |
| 2026-05-04 04:54 | 46.62876 | -152.64169 | 32005 ft | 526 kts | 281° |
| 2026-05-04 04:55 | 46.65138 | -152.74293 | 32000 ft | 526 kts | 281° |
| 2026-05-04 04:55 | 46.67392 | -152.84429 | 32001 ft | 526 kts | 281° |
| 2026-05-04 04:56 | 46.69633 | -152.94579 | 31999 ft | 527 kts | 281° |
| 2026-05-04 04:56 | 46.71873 | -153.04744 | 32001 ft | 526 kts | 281° |
| 2026-05-04 04:57 | 46.74099 | -153.14896 | 32001 ft | 526 kts | 281° |
| 2026-05-04 04:57 | 46.76311 | -153.25057 | 31999 ft | 525 kts | 281° |
| 2026-05-04 04:58 | 46.78514 | -153.35204 | 31998 ft | 524 kts | 281° |
| 2026-05-04 04:58 | 46.80704 | -153.45337 | 32000 ft | 523 kts | 281° |
| 2026-05-04 04:59 | 46.82878 | -153.55456 | 32001 ft | 522 kts | 281° |
| 2026-05-04 04:59 | 46.85036 | -153.65565 | 32000 ft | 522 kts | 281° |
| 2026-05-04 05:00 | 46.87187 | -153.75683 | 31999 ft | 521 kts | 281° |
| 2026-05-04 05:01 | 46.90397 | -153.90861 | 31986 ft | 521 kts | 281° |
| 2026-05-04 05:01 | 46.92528 | -154.00997 | 31993 ft | 521 kts | 281° |
| 2026-05-04 05:02 | 46.94647 | -154.11135 | 32002 ft | 521 kts | 282° |
| 2026-05-04 05:02 | 46.96738 | -154.21207 | 31986 ft | 520 kts | 282° |
| 2026-05-04 05:03 | 46.98849 | -154.31406 | 31974 ft | 520 kts | 282° |
| 2026-05-04 05:04 | 47.03000 | -154.51603 | 31971 ft | 519 kts | 282° |
| 2026-05-04 05:04 | 47.05067 | -154.61749 | 31971 ft | 520 kts | 282° |
| 2026-05-04 05:06 | 47.13258 | -155.02449 | 31972 ft | 520 kts | 283° |
| 2026-05-04 05:07 | 47.15279 | -155.12646 | 31971 ft | 520 kts | 283° |
| 2026-05-04 05:07 | 47.17295 | -155.22835 | 31976 ft | 519 kts | 283° |
| 2026-05-04 05:09 | 47.26237 | -155.68776 | 31984 ft | 519 kts | 283° |
| 2026-05-04 05:10 | 47.28201 | -155.79012 | 31985 ft | 520 kts | 283° |
| 2026-05-04 05:10 | 47.30154 | -155.89258 | 31979 ft | 520 kts | 283° |
| 2026-05-04 05:11 | 47.32105 | -155.99523 | 31979 ft | 520 kts | 283° |
| 2026-05-04 05:11 | 47.34055 | -156.09810 | 31997 ft | 521 kts | 283° |
| 2026-05-04 05:12 | 47.35985 | -156.20098 | 31978 ft | 521 kts | 283° |
| 2026-05-04 05:12 | 47.37907 | -156.30390 | 31977 ft | 520 kts | 283° |
| 2026-05-04 05:13 | 47.39798 | -156.40602 | 31986 ft | 519 kts | 283° |
| 2026-05-04 05:13 | 47.41701 | -156.50866 | 31984 ft | 518 kts | 283° |
| 2026-05-04 05:14 | 47.43586 | -156.61132 | 31975 ft | 517 kts | 283° |
| 2026-05-04 05:14 | 47.45453 | -156.71372 | 31972 ft | 515 kts | 283° |
| 2026-05-04 05:15 | 47.47306 | -156.81583 | 31973 ft | 514 kts | 283° |
| 2026-05-04 05:15 | 47.49145 | -156.91770 | 31974 ft | 513 kts | 283° |
| 2026-05-04 05:16 | 47.50973 | -157.01946 | 31971 ft | 511 kts | 283° |
| 2026-05-04 05:16 | 47.52786 | -157.12104 | 31973 ft | 510 kts | 283° |
| 2026-05-04 05:17 | 47.54588 | -157.22248 | 31969 ft | 509 kts | 283° |
| 2026-05-04 05:17 | 47.56378 | -157.32380 | 31974 ft | 508 kts | 283° |
| 2026-05-04 05:18 | 47.58157 | -157.42507 | 31973 ft | 508 kts | 283° |
| 2026-05-04 05:18 | 47.59923 | -157.52647 | 31973 ft | 509 kts | 282° |
| 2026-05-04 05:19 | 47.61684 | -157.62800 | 31971 ft | 509 kts | 283° |
| 2026-05-04 05:19 | 47.63431 | -157.72885 | 31971 ft | 509 kts | 282° |
| 2026-05-04 05:20 | 47.65176 | -157.83051 | 31979 ft | 509 kts | 282° |
| 2026-05-04 05:20 | 47.66910 | -157.93226 | 31981 ft | 509 kts | 282° |
| 2026-05-04 05:21 | 47.68638 | -158.03412 | 31985 ft | 510 kts | 282° |
| 2026-05-04 05:21 | 47.70358 | -158.13618 | 31982 ft | 510 kts | 282° |
| 2026-05-04 05:22 | 47.72070 | -158.23840 | 31981 ft | 510 kts | 282° |
| 2026-05-04 05:22 | 47.73772 | -158.34061 | 31985 ft | 509 kts | 282° |
| 2026-05-04 05:23 | 47.75464 | -158.44274 | 31984 ft | 509 kts | 282° |
| 2026-05-04 05:23 | 47.77146 | -158.54476 | 31980 ft | 507 kts | 282° |
| 2026-05-04 05:24 | 47.78809 | -158.64645 | 31979 ft | 505 kts | 282° |
| 2026-05-04 05:24 | 47.80455 | -158.74785 | 31984 ft | 503 kts | 282° |
| 2026-05-04 05:25 | 47.82090 | -158.84896 | 31982 ft | 502 kts | 282° |
| 2026-05-04 05:25 | 47.83697 | -158.94903 | 31979 ft | 500 kts | 282° |
| 2026-05-04 05:26 | 47.85307 | -159.04961 | 31984 ft | 498 kts | 282° |
| 2026-05-04 05:26 | 47.86898 | -159.14987 | 31983 ft | 497 kts | 281° |
| 2026-05-04 05:28 | 47.92892 | -159.53323 | 31973 ft | 495 kts | 281° |
| 2026-05-04 05:29 | 47.94436 | -159.63340 | 31974 ft | 496 kts | 281° |
| 2026-05-04 05:29 | 47.95971 | -159.73381 | 31977 ft | 497 kts | 281° |
| 2026-05-04 05:31 | 48.01998 | -160.13660 | 31973 ft | 497 kts | 280° |
| 2026-05-04 05:32 | 48.03446 | -160.23752 | 31974 ft | 497 kts | 279° |
| 2026-05-04 05:33 | 48.05610 | -160.38901 | 31974 ft | 497 kts | 279° |
| 2026-05-04 05:33 | 48.07042 | -160.49001 | 31973 ft | 496 kts | 279° |
| 2026-05-04 05:34 | 48.08464 | -160.59086 | 31978 ft | 495 kts | 279° |
| 2026-05-04 05:34 | 48.09871 | -160.69143 | 31993 ft | 493 kts | 279° |
| 2026-05-04 05:35 | 48.11255 | -160.79106 | 31992 ft | 492 kts | 279° |
| 2026-05-04 05:35 | 48.12636 | -160.89111 | 31991 ft | 490 kts | 279° |
| 2026-05-04 05:36 | 48.14003 | -160.99069 | 31992 ft | 487 kts | 279° |
| 2026-05-04 05:36 | 48.15353 | -161.08994 | 31990 ft | 486 kts | 279° |
| 2026-05-04 05:37 | 48.16690 | -161.18883 | 31997 ft | 483 kts | 279° |
| 2026-05-04 05:37 | 48.18013 | -161.28728 | 31993 ft | 481 kts | 279° |
| 2026-05-04 05:38 | 48.19970 | -161.43401 | 31989 ft | 477 kts | 280° |
| 2026-05-04 05:38 | 48.21252 | -161.53119 | 31991 ft | 474 kts | 280° |
| 2026-05-04 05:39 | 48.23146 | -161.67615 | 31988 ft | 471 kts | 280° |
| 2026-05-04 05:40 | 48.25019 | -161.82041 | 31985 ft | 469 kts | 280° |
| 2026-05-04 05:40 | 48.26247 | -161.91576 | 31989 ft | 468 kts | 280° |
| 2026-05-04 05:41 | 48.27457 | -162.01162 | 31985 ft | 467 kts | 280° |
| 2026-05-04 05:41 | 48.28671 | -162.10736 | 31992 ft | 467 kts | 280° |
| 2026-05-04 05:42 | 48.29879 | -162.20299 | 31992 ft | 466 kts | 280° |
| 2026-05-04 05:42 | 48.31080 | -162.29887 | 31986 ft | 467 kts | 280° |
| 2026-05-04 05:43 | 48.32266 | -162.39469 | 32024 ft | 467 kts | 280° |
| 2026-05-04 05:45 | 48.36937 | -162.77858 | 32075 ft | 465 kts | 281° |
| 2026-05-04 05:47 | 48.41428 | -163.15823 | 32072 ft | 455 kts | 281° |
| 2026-05-04 05:47 | 48.42513 | -163.25173 | 32073 ft | 452 kts | 282° |
| 2026-05-04 05:48 | 48.43577 | -163.34415 | 32075 ft | 449 kts | 282° |
| 2026-05-04 05:48 | 48.44635 | -163.43669 | 32075 ft | 447 kts | 282° |
| 2026-05-04 05:49 | 48.45680 | -163.52887 | 32076 ft | 445 kts | 282° |
| 2026-05-04 05:49 | 48.46719 | -163.62112 | 32072 ft | 442 kts | 283° |
| 2026-05-04 05:51 | 48.50734 | -163.98420 | 32084 ft | 438 kts | 283° |
| 2026-05-04 05:52 | 48.51719 | -164.07481 | 32090 ft | 437 kts | 283° |
| 2026-05-04 05:52 | 48.52694 | -164.16535 | 32081 ft | 437 kts | 283° |
| 2026-05-04 05:54 | 48.56512 | -164.52702 | 32093 ft | 438 kts | 283° |
| 2026-05-04 05:55 | 48.57456 | -164.61792 | 32094 ft | 439 kts | 282° |
| 2026-05-04 05:55 | 48.58395 | -164.70908 | 32093 ft | 440 kts | 282° |
| 2026-05-04 05:56 | 48.59326 | -164.80058 | 32093 ft | 441 kts | 282° |
| 2026-05-04 05:56 | 48.60251 | -164.89230 | 32090 ft | 442 kts | 282° |
| 2026-05-04 05:57 | 48.61170 | -164.98404 | 32094 ft | 442 kts | 282° |
| 2026-05-04 05:57 | 48.62084 | -165.07590 | 32091 ft | 442 kts | 282° |
| 2026-05-04 05:58 | 48.62985 | -165.16706 | 32092 ft | 441 kts | 282° |
| 2026-05-04 05:58 | 48.63883 | -165.25887 | 32090 ft | 441 kts | 282° |
| 2026-05-04 05:59 | 48.64771 | -165.35067 | 32092 ft | 441 kts | 282° |
| 2026-05-04 05:59 | 48.65654 | -165.44234 | 32094 ft | 440 kts | 282° |
| 2026-05-04 06:00 | 48.66526 | -165.53394 | 32092 ft | 439 kts | 282° |
| 2026-05-04 06:00 | 48.67389 | -165.62540 | 32092 ft | 439 kts | 282° |
| 2026-05-04 06:01 | 48.68244 | -165.71672 | 32084 ft | 438 kts | 281° |
| 2026-05-04 06:03 | 48.71598 | -166.08273 | 32082 ft | 440 kts | 281° |
| 2026-05-04 06:05 | 48.75241 | -166.49651 | 32082 ft | 441 kts | 280° |
| 2026-05-04 06:06 | 48.76035 | -166.58886 | 32090 ft | 442 kts | 280° |
| 2026-05-04 06:06 | 48.76818 | -166.68122 | 32113 ft | 442 kts | 280° |
| 2026-05-04 06:07 | 48.77595 | -166.77363 | 32108 ft | 442 kts | 280° |
| 2026-05-04 06:07 | 48.78370 | -166.86616 | 32102 ft | 442 kts | 280° |
| 2026-05-04 06:08 | 48.79126 | -166.95873 | 32110 ft | 443 kts | 279° |
| 2026-05-04 06:08 | 48.79881 | -167.05079 | 32110 ft | 443 kts | 279° |
| 2026-05-04 06:09 | 48.80633 | -167.14347 | 32106 ft | 443 kts | 279° |
| 2026-05-04 06:11 | 48.83564 | -167.51553 | 32103 ft | 445 kts | 279° |
| 2026-05-04 06:13 | 48.86380 | -167.88853 | 32108 ft | 446 kts | 278° |
| 2026-05-04 06:14 | 48.88751 | -168.21611 | 32113 ft | 447 kts | 278° |
| 2026-05-04 06:15 | 48.89416 | -168.31000 | 32105 ft | 447 kts | 278° |
| 2026-05-04 06:15 | 48.90068 | -168.40411 | 32111 ft | 448 kts | 278° |
| 2026-05-04 06:16 | 48.90716 | -168.49827 | 32113 ft | 448 kts | 277° |
| 2026-05-04 06:16 | 48.91358 | -168.59257 | 32108 ft | 449 kts | 277° |
| 2026-05-04 06:17 | 48.91991 | -168.68691 | 32111 ft | 449 kts | 277° |
| 2026-05-04 06:17 | 48.92618 | -168.78132 | 32109 ft | 448 kts | 277° |
| 2026-05-04 06:18 | 48.93236 | -168.87559 | 32121 ft | 448 kts | 277° |
| 2026-05-04 06:20 | 48.95528 | -169.23679 | 32105 ft | 448 kts | 277° |
| 2026-05-04 06:21 | 48.96966 | -169.47268 | 32120 ft | 448 kts | 276° |
| 2026-05-04 06:22 | 48.97529 | -169.56715 | 32111 ft | 449 kts | 276° |
| 2026-05-04 06:25 | 48.98710 | -170.22985 | 32113 ft | 451 kts | 266° |
| 2026-05-04 06:26 | 48.98149 | -170.32559 | 32114 ft | 451 kts | 266° |
| 2026-05-04 06:26 | 48.97591 | -170.42081 | 32105 ft | 452 kts | 266° |
| 2026-05-04 06:27 | 48.96166 | -170.65844 | 32102 ft | 452 kts | 265° |
| 2026-05-04 06:28 | 48.95583 | -170.75362 | 32109 ft | 452 kts | 265° |
| 2026-05-04 06:28 | 48.94994 | -170.84874 | 32105 ft | 452 kts | 265° |
| 2026-05-04 06:29 | 48.94394 | -170.94390 | 32104 ft | 452 kts | 265° |
| 2026-05-04 06:29 | 48.93784 | -171.03905 | 32106 ft | 452 kts | 265° |
| 2026-05-04 06:30 | 48.93166 | -171.13421 | 32111 ft | 452 kts | 265° |
| 2026-05-04 06:30 | 48.92541 | -171.22939 | 32110 ft | 452 kts | 265° |
| 2026-05-04 06:31 | 48.91910 | -171.32457 | 32105 ft | 452 kts | 265° |
| 2026-05-04 06:31 | 48.91269 | -171.41974 | 32112 ft | 452 kts | 264° |
| 2026-05-04 06:33 | 48.88629 | -171.80025 | 32116 ft | 453 kts | 264° |
| 2026-05-04 06:34 | 48.87948 | -171.89560 | 32104 ft | 454 kts | 264° |
| 2026-05-04 06:34 | 48.87262 | -171.99027 | 32115 ft | 454 kts | 264° |
| 2026-05-04 06:36 | 48.84429 | -172.37121 | 34028 ft | 453 kts | 263° |
| 2026-05-04 06:37 | 48.83701 | -172.46626 | 34109 ft | 452 kts | 262° |
| 2026-05-04 06:37 | 48.82966 | -172.56093 | 34109 ft | 451 kts | 262° |
| 2026-05-04 06:38 | 48.82228 | -172.65528 | 34110 ft | 450 kts | 262° |
| 2026-05-04 06:40 | 48.79193 | -173.03316 | 34113 ft | 453 kts | 262° |
| 2026-05-04 06:40 | 48.78415 | -173.12734 | 34113 ft | 454 kts | 262° |
| 2026-05-04 06:41 | 48.77625 | -173.22239 | 34112 ft | 455 kts | 261° |
| 2026-05-04 06:41 | 48.76825 | -173.31748 | 34113 ft | 455 kts | 261° |
| 2026-05-04 06:42 | 48.76015 | -173.41264 | 34110 ft | 455 kts | 261° |
| 2026-05-04 06:44 | 48.72708 | -173.79213 | 34117 ft | 453 kts | 261° |
| 2026-05-04 06:44 | 48.71862 | -173.88671 | 34120 ft | 453 kts | 260° |
| 2026-05-04 06:45 | 48.71014 | -173.98122 | 34123 ft | 453 kts | 260° |
| 2026-05-04 06:45 | 48.70159 | -174.07565 | 34116 ft | 453 kts | 260° |
| 2026-05-04 06:46 | 48.69291 | -174.17006 | 34121 ft | 453 kts | 260° |
| 2026-05-04 06:46 | 48.68391 | -174.26413 | 34108 ft | 452 kts | 259° |
| 2026-05-04 06:48 | 48.64825 | -174.64319 | 34055 ft | 456 kts | 259° |
| 2026-05-04 06:50 | 48.61108 | -175.02162 | 34055 ft | 455 kts | 259° |
| 2026-05-04 06:51 | 48.60163 | -175.11608 | 34056 ft | 455 kts | 258° |
| 2026-05-04 06:51 | 48.59209 | -175.21048 | 34055 ft | 455 kts | 258° |
| 2026-05-04 06:52 | 48.58246 | -175.30482 | 34056 ft | 454 kts | 258° |
| 2026-05-04 06:52 | 48.57276 | -175.39902 | 34056 ft | 454 kts | 258° |
| 2026-05-04 06:53 | 48.56298 | -175.49316 | 34054 ft | 453 kts | 258° |
| 2026-05-04 06:53 | 48.55316 | -175.58706 | 34057 ft | 453 kts | 258° |
| 2026-05-04 06:54 | 48.54327 | -175.68089 | 34056 ft | 452 kts | 258° |
| 2026-05-04 06:54 | 48.53333 | -175.77450 | 34055 ft | 452 kts | 257° |
| 2026-05-04 06:55 | 48.52332 | -175.86797 | 34056 ft | 451 kts | 257° |
| 2026-05-04 06:55 | 48.51325 | -175.96140 | 34057 ft | 451 kts | 257° |
| 2026-05-04 06:57 | 48.47216 | -176.33416 | 34056 ft | 451 kts | 257° |
| 2026-05-04 06:58 | 48.46170 | -176.42735 | 34056 ft | 452 kts | 257° |
| 2026-05-04 06:58 | 48.45122 | -176.52012 | 34058 ft | 453 kts | 257° |
| 2026-05-04 06:59 | 48.44058 | -176.61358 | 34057 ft | 454 kts | 257° |
| 2026-05-04 06:59 | 48.42981 | -176.70727 | 34051 ft | 454 kts | 257° |
| 2026-05-04 07:01 | 48.38580 | -177.08369 | 34005 ft | 458 kts | 257° |
| 2026-05-04 07:02 | 48.37454 | -177.17804 | 34011 ft | 459 kts | 257° |
| 2026-05-04 07:02 | 48.36319 | -177.27245 | 34010 ft | 459 kts | 257° |
| 2026-05-04 07:03 | 48.35178 | -177.36682 | 34010 ft | 459 kts | 257° |
| 2026-05-04 07:03 | 48.34028 | -177.46125 | 34007 ft | 459 kts | 257° |
| 2026-05-04 07:04 | 48.32873 | -177.55562 | 34002 ft | 459 kts | 257° |
| 2026-05-04 07:04 | 48.31708 | -177.64988 | 33999 ft | 458 kts | 257° |
| 2026-05-04 07:05 | 48.30539 | -177.74392 | 34000 ft | 458 kts | 257° |
| 2026-05-04 07:05 | 48.29361 | -177.83783 | 34002 ft | 458 kts | 257° |
| 2026-05-04 07:06 | 48.27584 | -177.97861 | 33999 ft | 457 kts | 257° |
| 2026-05-04 07:07 | 48.26389 | -178.07236 | 33998 ft | 457 kts | 257° |
| 2026-05-04 07:09 | 48.21536 | -178.44664 | 34000 ft | 459 kts | 257° |
| 2026-05-04 07:09 | 48.20300 | -178.54052 | 33999 ft | 460 kts | 257° |
| 2026-05-04 07:10 | 48.19051 | -178.63457 | 34001 ft | 460 kts | 257° |
| 2026-05-04 07:12 | 48.14179 | -178.99610 | 34008 ft | 463 kts | 257° |
| 2026-05-04 07:12 | 48.12885 | -179.09053 | 34012 ft | 463 kts | 257° |
| 2026-05-04 07:13 | 48.11581 | -179.18508 | 34011 ft | 464 kts | 257° |
| 2026-05-04 07:13 | 48.10267 | -179.27955 | 34011 ft | 464 kts | 257° |
| 2026-05-04 07:14 | 48.06956 | -179.51574 | 34011 ft | 464 kts | 257° |
| 2026-05-04 07:15 | 48.05618 | -179.61006 | 34011 ft | 464 kts | 257° |
| 2026-05-04 07:15 | 48.04271 | -179.70430 | 34009 ft | 464 kts | 257° |
| 2026-05-04 07:16 | 48.02931 | -179.79783 | 34010 ft | 463 kts | 257° |
| 2026-05-04 07:16 | 48.01566 | -179.89236 | 34007 ft | 462 kts | 257° |
| 2026-05-04 07:17 | 48.00205 | -179.98544 | 34007 ft | 461 kts | 256° |
| 2026-05-04 07:17 | 47.98201 | 179.92305 | 33989 ft | 461 kts | 249° |
| 2026-05-04 07:18 | 47.95986 | 179.83373 | 33898 ft | 463 kts | 249° |
| 2026-05-04 07:18 | 47.93760 | 179.74352 | 33815 ft | 464 kts | 250° |
| 2026-05-04 07:19 | 47.91547 | 179.65342 | 33801 ft | 462 kts | 250° |
| 2026-05-04 07:19 | 47.89341 | 179.56368 | 33794 ft | 460 kts | 250° |
| 2026-05-04 07:20 | 47.87135 | 179.47432 | 33798 ft | 459 kts | 250° |
| 2026-05-04 07:20 | 47.84927 | 179.38533 | 33798 ft | 458 kts | 250° |
| 2026-05-04 07:22 | 47.76052 | 179.03105 | 33797 ft | 456 kts | 250° |
| 2026-05-04 07:23 | 47.73824 | 178.94280 | 33797 ft | 456 kts | 250° |
| 2026-05-04 07:23 | 47.71587 | 178.85463 | 33798 ft | 456 kts | 250° |
| 2026-05-04 07:24 | 47.69342 | 178.76648 | 33795 ft | 457 kts | 250° |
| 2026-05-04 07:24 | 47.67087 | 178.67842 | 33796 ft | 457 kts | 250° |
| 2026-05-04 07:26 | 47.57991 | 178.32630 | 33796 ft | 458 kts | 250° |
| 2026-05-04 07:27 | 47.55698 | 178.23831 | 33796 ft | 458 kts | 250° |
| 2026-05-04 07:27 | 47.53394 | 178.15034 | 33796 ft | 459 kts | 250° |
| 2026-05-04 07:28 | 47.51096 | 178.06292 | 33796 ft | 459 kts | 250° |
| 2026-05-04 07:28 | 47.48776 | 177.97496 | 33797 ft | 459 kts | 250° |
| 2026-05-04 07:29 | 47.46434 | 177.88650 | 33797 ft | 459 kts | 250° |
| 2026-05-04 07:29 | 47.44116 | 177.79930 | 33799 ft | 459 kts | 250° |
| 2026-05-04 07:30 | 47.41783 | 177.71182 | 33794 ft | 457 kts | 250° |
| 2026-05-04 07:30 | 47.39449 | 177.62464 | 33796 ft | 456 kts | 250° |
| 2026-05-04 07:31 | 47.37116 | 177.53774 | 33794 ft | 455 kts | 250° |
| 2026-05-04 07:33 | 47.27768 | 177.19317 | 33824 ft | 452 kts | 250° |
| 2026-05-04 07:33 | 47.25426 | 177.10748 | 33823 ft | 451 kts | 250° |
| 2026-05-04 07:34 | 47.23072 | 177.02191 | 33824 ft | 451 kts | 250° |
| 2026-05-04 07:34 | 47.20715 | 176.93650 | 33825 ft | 451 kts | 250° |
| 2026-05-04 07:35 | 47.18354 | 176.85111 | 33824 ft | 451 kts | 250° |
| 2026-05-04 07:35 | 47.16002 | 176.76637 | 33825 ft | 451 kts | 250° |
| 2026-05-04 07:36 | 47.13632 | 176.68122 | 33821 ft | 450 kts | 250° |
| 2026-05-04 07:38 | 47.04094 | 176.34209 | 33826 ft | 449 kts | 250° |
| 2026-05-04 07:38 | 47.01702 | 176.25767 | 33822 ft | 448 kts | 250° |
| 2026-05-04 07:39 | 46.99304 | 176.17338 | 33824 ft | 448 kts | 250° |
| 2026-05-04 07:39 | 46.96898 | 176.08921 | 33825 ft | 448 kts | 250° |
| 2026-05-04 07:40 | 46.94493 | 176.00516 | 33823 ft | 447 kts | 250° |
| 2026-05-04 07:40 | 46.92079 | 175.92134 | 33828 ft | 447 kts | 250° |
| 2026-05-04 07:41 | 46.89668 | 175.83764 | 33822 ft | 446 kts | 250° |
| 2026-05-04 07:41 | 46.87246 | 175.75412 | 33824 ft | 446 kts | 250° |
| 2026-05-04 07:42 | 46.84826 | 175.67084 | 33824 ft | 445 kts | 250° |
| 2026-05-04 07:42 | 46.82400 | 175.58766 | 33823 ft | 445 kts | 250° |
| 2026-05-04 07:43 | 46.79987 | 175.50510 | 33824 ft | 445 kts | 250° |
| 2026-05-04 07:43 | 46.77551 | 175.42207 | 33823 ft | 445 kts | 250° |
| 2026-05-04 07:44 | 46.75109 | 175.33918 | 33825 ft | 445 kts | 251° |
| 2026-05-04 07:44 | 46.72666 | 175.25633 | 33823 ft | 445 kts | 250° |
| 2026-05-04 07:45 | 46.70216 | 175.17372 | 33825 ft | 444 kts | 250° |
| 2026-05-04 07:45 | 46.67759 | 175.09113 | 33823 ft | 444 kts | 251° |
| 2026-05-04 07:46 | 46.65299 | 175.00866 | 33823 ft | 444 kts | 251° |
| 2026-05-04 07:46 | 46.62832 | 174.92633 | 33833 ft | 444 kts | 251° |
| 2026-05-04 07:47 | 46.60365 | 174.84422 | 33835 ft | 443 kts | 251° |
| 2026-05-04 07:49 | 46.50456 | 174.51706 | 33834 ft | 441 kts | 251° |
| 2026-05-04 07:49 | 46.47977 | 174.43579 | 33832 ft | 440 kts | 251° |
| 2026-05-04 07:50 | 46.45489 | 174.35474 | 33834 ft | 439 kts | 251° |
| 2026-05-04 07:50 | 46.43007 | 174.27397 | 33835 ft | 438 kts | 251° |
| 2026-05-04 07:51 | 46.40527 | 174.19349 | 33835 ft | 437 kts | 251° |
| 2026-05-04 07:51 | 46.38045 | 174.11323 | 33832 ft | 436 kts | 251° |
| 2026-05-04 07:52 | 46.35565 | 174.03325 | 33810 ft | 435 kts | 251° |
| 2026-05-04 07:52 | 46.33080 | 173.95338 | 33809 ft | 435 kts | 252° |
| 2026-05-04 07:54 | 46.23114 | 173.63572 | 33805 ft | 434 kts | 251° |
| 2026-05-04 07:55 | 46.20603 | 173.55623 | 33805 ft | 435 kts | 251° |
| 2026-05-04 07:55 | 46.18083 | 173.47678 | 33805 ft | 436 kts | 251° |
| 2026-05-04 07:56 | 46.15556 | 173.39723 | 33806 ft | 436 kts | 251° |
| 2026-05-04 07:56 | 46.13017 | 173.31767 | 33804 ft | 437 kts | 251° |
| 2026-05-04 07:57 | 46.10474 | 173.23822 | 33807 ft | 437 kts | 251° |
| 2026-05-04 07:57 | 46.07921 | 173.15881 | 33804 ft | 437 kts | 251° |
| 2026-05-04 07:58 | 46.05369 | 173.07951 | 33807 ft | 437 kts | 251° |
| 2026-05-04 07:58 | 46.02811 | 173.00033 | 33806 ft | 436 kts | 251° |
| 2026-05-04 07:59 | 46.00250 | 172.92140 | 33805 ft | 435 kts | 252° |
| 2026-05-04 07:59 | 45.97711 | 172.84335 | 33818 ft | 432 kts | 253° |
| 2026-05-04 08:00 | 45.95197 | 172.76640 | 33794 ft | 420 kts | 253° |
| 2026-05-04 08:02 | 45.85642 | 172.47493 | 33814 ft | 422 kts | 253° |
| 2026-05-04 08:02 | 45.83138 | 172.39924 | 33817 ft | 423 kts | 253° |
| 2026-05-04 08:03 | 45.80611 | 172.32305 | 33815 ft | 423 kts | 253° |
| 2026-05-04 08:03 | 45.78080 | 172.24696 | 33813 ft | 423 kts | 253° |
| 2026-05-04 08:04 | 45.75540 | 172.17079 | 33816 ft | 424 kts | 253° |
| 2026-05-04 08:04 | 45.72992 | 172.09469 | 33814 ft | 424 kts | 253° |
| 2026-05-04 08:05 | 45.70442 | 172.01865 | 33814 ft | 424 kts | 253° |
| 2026-05-04 08:05 | 45.67888 | 171.94274 | 33815 ft | 424 kts | 253° |
| 2026-05-04 08:06 | 45.65326 | 171.86689 | 33813 ft | 423 kts | 253° |
| 2026-05-04 08:06 | 45.62772 | 171.79132 | 33815 ft | 422 kts | 253° |
| 2026-05-04 08:08 | 45.52555 | 171.49154 | 33812 ft | 417 kts | 254° |
| 2026-05-04 08:11 | 45.41177 | 171.16155 | 33816 ft | 409 kts | 255° |
| 2026-05-04 08:11 | 45.37404 | 171.05302 | 33813 ft | 407 kts | 256° |
| 2026-05-04 08:12 | 45.34890 | 170.98096 | 33818 ft | 407 kts | 256° |
| 2026-05-04 08:12 | 45.32374 | 170.90909 | 33814 ft | 406 kts | 256° |
| 2026-05-04 08:13 | 45.29861 | 170.83740 | 33812 ft | 405 kts | 256° |
| 2026-05-04 08:13 | 45.27350 | 170.76592 | 33816 ft | 404 kts | 256° |
| 2026-05-04 08:14 | 45.24837 | 170.69467 | 33815 ft | 403 kts | 256° |
| 2026-05-04 08:16 | 45.14773 | 170.41105 | 33817 ft | 403 kts | 256° |
| 2026-05-04 08:16 | 45.12244 | 170.34027 | 33824 ft | 402 kts | 256° |
| 2026-05-04 08:17 | 45.09716 | 170.26968 | 33824 ft | 402 kts | 256° |
| 2026-05-04 08:17 | 45.07184 | 170.19917 | 33823 ft | 402 kts | 256° |
| 2026-05-04 08:19 | 44.97795 | 169.95562 | 33830 ft | 416 kts | 249° |
| 2026-05-04 08:19 | 44.96097 | 169.92261 | 33828 ft | 414 kts | 249° |
| 2026-05-04 08:20 | 44.92743 | 169.85676 | 33821 ft | 412 kts | 250° |
| 2026-05-04 08:20 | 44.89419 | 169.79127 | 33821 ft | 409 kts | 250° |
| 2026-05-04 08:21 | 44.86113 | 169.72614 | 33824 ft | 408 kts | 250° |
| 2026-05-04 08:21 | 44.82809 | 169.66119 | 33824 ft | 407 kts | 250° |
| 2026-05-04 08:22 | 44.79505 | 169.59640 | 33825 ft | 408 kts | 250° |
| 2026-05-04 08:24 | 44.66215 | 169.33753 | 33824 ft | 410 kts | 250° |
| 2026-05-04 08:24 | 44.62866 | 169.27267 | 33826 ft | 410 kts | 250° |
| 2026-05-04 08:25 | 44.59508 | 169.20786 | 33824 ft | 411 kts | 249° |
| 2026-05-04 08:25 | 44.56149 | 169.14304 | 33821 ft | 411 kts | 249° |
| 2026-05-04 08:27 | 44.42659 | 168.88439 | 33824 ft | 410 kts | 249° |
| 2026-05-04 08:28 | 44.39289 | 168.82013 | 33820 ft | 410 kts | 249° |
| 2026-05-04 08:28 | 44.35919 | 168.75598 | 33824 ft | 409 kts | 249° |
| 2026-05-04 08:29 | 44.32548 | 168.69197 | 33824 ft | 409 kts | 249° |
| 2026-05-04 08:31 | 44.19044 | 168.43705 | 33843 ft | 409 kts | 248° |
| 2026-05-04 08:33 | 44.05456 | 168.18274 | 33852 ft | 409 kts | 248° |
| 2026-05-04 08:35 | 43.91811 | 167.92960 | 33852 ft | 409 kts | 248° |
| 2026-05-04 08:35 | 43.88388 | 167.86653 | 33851 ft | 409 kts | 248° |
| 2026-05-04 08:37 | 43.76409 | 167.64649 | 33851 ft | 410 kts | 248° |
| 2026-05-04 08:38 | 43.72960 | 167.58347 | 33852 ft | 412 kts | 247° |
| 2026-05-04 08:38 | 43.69502 | 167.52043 | 33855 ft | 411 kts | 247° |
| 2026-05-04 08:40 | 43.55630 | 167.26884 | 33851 ft | 412 kts | 246° |
| 2026-05-04 08:41 | 43.52144 | 167.20595 | 33856 ft | 413 kts | 246° |
| 2026-05-04 08:41 | 43.48655 | 167.14313 | 33849 ft | 413 kts | 246° |
| 2026-05-04 08:42 | 43.45156 | 167.08031 | 33853 ft | 413 kts | 246° |
| 2026-05-04 08:42 | 43.41654 | 167.01754 | 33852 ft | 414 kts | 246° |
| 2026-05-04 08:43 | 43.38165 | 166.95517 | 33852 ft | 414 kts | 246° |
| 2026-05-04 08:43 | 43.34647 | 166.89237 | 33855 ft | 415 kts | 245° |
| 2026-05-04 08:44 | 43.31126 | 166.82964 | 33850 ft | 415 kts | 245° |
| 2026-05-04 08:46 | 43.16982 | 166.57907 | 33834 ft | 416 kts | 245° |
| 2026-05-04 08:46 | 43.13426 | 166.51645 | 33825 ft | 416 kts | 245° |
| 2026-05-04 08:47 | 43.09875 | 166.45396 | 33822 ft | 416 kts | 245° |
| 2026-05-04 08:47 | 43.06313 | 166.39154 | 33821 ft | 416 kts | 244° |
| 2026-05-04 08:48 | 43.02751 | 166.32913 | 33826 ft | 416 kts | 244° |
| 2026-05-04 08:48 | 42.99204 | 166.26714 | 33825 ft | 417 kts | 244° |
| 2026-05-04 08:49 | 42.95628 | 166.20480 | 33822 ft | 417 kts | 244° |
| 2026-05-04 08:50 | 42.83060 | 165.98670 | 33822 ft | 418 kts | 243° |
| 2026-05-04 08:51 | 42.79459 | 165.92453 | 33823 ft | 418 kts | 243° |
| 2026-05-04 08:51 | 42.75857 | 165.86247 | 33823 ft | 418 kts | 243° |
| 2026-05-04 08:52 | 42.72247 | 165.80039 | 33824 ft | 418 kts | 243° |
| 2026-05-04 08:52 | 42.68633 | 165.73838 | 33823 ft | 419 kts | 243° |
| 2026-05-04 08:54 | 42.54154 | 165.49112 | 33825 ft | 419 kts | 242° |
| 2026-05-04 08:55 | 42.50523 | 165.42947 | 33824 ft | 419 kts | 242° |
| 2026-05-04 08:55 | 42.46889 | 165.36788 | 33824 ft | 418 kts | 242° |
| 2026-05-04 09:01 | 42.09261 | 164.73746 | 33822 ft | 416 kts | 242° |
| 2026-05-04 09:01 | 42.05614 | 164.67702 | 33816 ft | 416 kts | 240° |
| 2026-05-04 09:02 | 42.01945 | 164.61634 | 33828 ft | 420 kts | 239° |
| 2026-05-04 09:02 | 41.98233 | 164.55500 | 33831 ft | 425 kts | 239° |
| 2026-05-04 09:03 | 41.94472 | 164.49308 | 33831 ft | 430 kts | 239° |
| 2026-05-04 09:03 | 41.90677 | 164.43075 | 33828 ft | 432 kts | 239° |
| 2026-05-04 09:04 | 41.86869 | 164.36840 | 33822 ft | 432 kts | 239° |
| 2026-05-04 09:04 | 41.83089 | 164.30664 | 33820 ft | 431 kts | 239° |
| 2026-05-04 09:05 | 41.79288 | 164.24471 | 33821 ft | 429 kts | 239° |
| 2026-05-04 09:05 | 41.75509 | 164.18310 | 33823 ft | 427 kts | 239° |
| 2026-05-04 09:06 | 41.71739 | 164.12178 | 33825 ft | 426 kts | 239° |
| 2026-05-04 09:08 | 41.56631 | 163.87730 | 33828 ft | 428 kts | 238° |
| 2026-05-04 09:08 | 41.52827 | 163.81608 | 33823 ft | 429 kts | 238° |
| 2026-05-04 09:09 | 41.49012 | 163.75492 | 33826 ft | 429 kts | 238° |
| 2026-05-04 09:09 | 41.45191 | 163.69363 | 33824 ft | 430 kts | 238° |
| 2026-05-04 09:10 | 41.41362 | 163.63232 | 33826 ft | 430 kts | 238° |
| 2026-05-04 09:10 | 41.37550 | 163.57146 | 33823 ft | 431 kts | 238° |
| 2026-05-04 09:11 | 41.33706 | 163.51028 | 33825 ft | 431 kts | 238° |
| 2026-05-04 09:11 | 41.29863 | 163.44917 | 33823 ft | 431 kts | 238° |
| 2026-05-04 09:12 | 41.26015 | 163.38807 | 33825 ft | 431 kts | 238° |
| 2026-05-04 09:14 | 41.10558 | 163.14399 | 33824 ft | 432 kts | 238° |
| 2026-05-04 09:14 | 41.06675 | 163.08304 | 33825 ft | 433 kts | 237° |
| 2026-05-04 09:15 | 41.02787 | 163.02203 | 33823 ft | 433 kts | 237° |
| 2026-05-04 09:15 | 40.98891 | 162.96112 | 33825 ft | 433 kts | 237° |
| 2026-05-04 09:17 | 40.81291 | 162.68726 | 33823 ft | 435 kts | 237° |
| 2026-05-04 09:18 | 40.77390 | 162.62689 | 33824 ft | 435 kts | 237° |
| 2026-05-04 09:18 | 40.73457 | 162.56617 | 33824 ft | 436 kts | 237° |
| 2026-05-04 09:19 | 40.69516 | 162.50546 | 33824 ft | 436 kts | 237° |
| 2026-05-04 09:19 | 40.65577 | 162.44483 | 33822 ft | 436 kts | 237° |
| 2026-05-04 09:20 | 40.61622 | 162.38410 | 33822 ft | 437 kts | 237° |
| 2026-05-04 09:20 | 40.57662 | 162.32340 | 33816 ft | 438 kts | 237° |
| 2026-05-04 09:21 | 40.53688 | 162.26263 | 33816 ft | 439 kts | 237° |
| 2026-05-04 09:21 | 40.49701 | 162.20181 | 33813 ft | 440 kts | 237° |
| 2026-05-04 09:22 | 40.45704 | 162.14093 | 33815 ft | 440 kts | 237° |
| 2026-05-04 09:22 | 40.41699 | 162.08004 | 33814 ft | 441 kts | 237° |
| 2026-05-04 09:23 | 40.37684 | 162.01910 | 33813 ft | 442 kts | 237° |
| 2026-05-04 09:23 | 40.33664 | 161.95829 | 33813 ft | 442 kts | 236° |
| 2026-05-04 09:25 | 40.17541 | 161.71539 | 33816 ft | 442 kts | 236° |
| 2026-05-04 09:26 | 40.13498 | 161.65482 | 33813 ft | 442 kts | 236° |
| 2026-05-04 09:26 | 40.09479 | 161.59468 | 33815 ft | 442 kts | 236° |
| 2026-05-04 09:27 | 40.05434 | 161.53427 | 33814 ft | 442 kts | 236° |
| 2026-05-04 09:27 | 40.01389 | 161.47401 | 33814 ft | 441 kts | 236° |
| 2026-05-04 09:28 | 39.97348 | 161.41382 | 33812 ft | 441 kts | 236° |
| 2026-05-04 09:28 | 39.93297 | 161.35369 | 33816 ft | 442 kts | 236° |
| 2026-05-04 09:29 | 39.89232 | 161.29351 | 33829 ft | 443 kts | 236° |
| 2026-05-04 09:29 | 39.85158 | 161.23326 | 33834 ft | 444 kts | 236° |
| 2026-05-04 09:30 | 39.81070 | 161.17293 | 33834 ft | 445 kts | 236° |
| 2026-05-04 09:30 | 39.76971 | 161.11255 | 33834 ft | 446 kts | 235° |
| 2026-05-04 09:31 | 39.72864 | 161.05213 | 33831 ft | 446 kts | 235° |
| 2026-05-04 09:31 | 39.68753 | 160.99182 | 33832 ft | 446 kts | 235° |
| 2026-05-04 09:32 | 39.64661 | 160.93191 | 33833 ft | 446 kts | 235° |
| 2026-05-04 09:34 | 39.48192 | 160.69192 | 33834 ft | 445 kts | 235° |
| 2026-05-04 09:34 | 39.44069 | 160.63214 | 33831 ft | 445 kts | 234° |
| 2026-05-04 09:35 | 39.39940 | 160.57237 | 33835 ft | 446 kts | 234° |
| 2026-05-04 09:35 | 39.35806 | 160.51270 | 33830 ft | 445 kts | 234° |
| 2026-05-04 09:37 | 39.19223 | 160.27419 | 33831 ft | 447 kts | 234° |
| 2026-05-04 09:38 | 39.15087 | 160.21498 | 33836 ft | 447 kts | 234° |
| 2026-05-04 09:38 | 39.10919 | 160.15549 | 33835 ft | 448 kts | 234° |
| 2026-05-04 09:39 | 39.06746 | 160.09599 | 33836 ft | 447 kts | 234° |
| 2026-05-04 09:39 | 39.02572 | 160.03655 | 33834 ft | 448 kts | 234° |
| 2026-05-04 09:40 | 38.98515 | 159.97610 | 33830 ft | 444 kts | 238° |
| 2026-05-04 09:40 | 38.94758 | 159.91305 | 33833 ft | 445 kts | 237° |
| 2026-05-04 09:42 | 38.79576 | 159.66173 | 33829 ft | 446 kts | 237° |
| 2026-05-04 09:43 | 38.75764 | 159.59893 | 33813 ft | 446 kts | 237° |
| 2026-05-04 09:43 | 38.71948 | 159.53624 | 33813 ft | 446 kts | 237° |
| 2026-05-04 09:44 | 38.68126 | 159.47356 | 33803 ft | 447 kts | 237° |
| 2026-05-04 09:46 | 38.52836 | 159.22394 | 33805 ft | 446 kts | 237° |
| 2026-05-04 09:46 | 38.49001 | 159.16165 | 33804 ft | 446 kts | 236° |
| 2026-05-04 09:47 | 38.45161 | 159.09940 | 33808 ft | 446 kts | 236° |
| 2026-05-04 09:49 | 38.29759 | 158.85091 | 33804 ft | 447 kts | 236° |
| 2026-05-04 09:51 | 38.16830 | 158.64375 | 33605 ft | 448 kts | 236° |
| 2026-05-04 09:51 | 38.12952 | 158.58190 | 33600 ft | 447 kts | 236° |
| 2026-05-04 09:52 | 38.09082 | 158.52028 | 33597 ft | 446 kts | 235° |
| 2026-05-04 09:52 | 38.05214 | 158.45875 | 33602 ft | 446 kts | 235° |
| 2026-05-04 09:53 | 38.01348 | 158.39732 | 33618 ft | 444 kts | 236° |
| 2026-05-04 09:53 | 37.97486 | 158.33598 | 33631 ft | 444 kts | 235° |
| 2026-05-04 09:54 | 37.93616 | 158.27447 | 33626 ft | 448 kts | 234° |
| 2026-05-04 09:54 | 37.89687 | 158.21318 | 33638 ft | 453 kts | 234° |
| 2026-05-04 09:55 | 37.85735 | 158.15091 | 33622 ft | 453 kts | 235° |
| 2026-05-04 09:55 | 37.81807 | 158.08857 | 33621 ft | 452 kts | 235° |
| 2026-05-04 09:56 | 37.77864 | 158.02685 | 33617 ft | 450 kts | 235° |
| 2026-05-04 09:56 | 37.73956 | 157.96507 | 33621 ft | 449 kts | 235° |
| 2026-05-04 09:57 | 37.70033 | 157.90382 | 33635 ft | 449 kts | 234° |
| 2026-05-04 09:57 | 37.66062 | 157.84250 | 34007 ft | 451 kts | 234° |
| 2026-05-04 09:57 | 37.64086 | 157.81194 | 34432 ft | 448 kts | 234° |
| 2026-05-04 09:58 | 37.62125 | 157.78153 | 34808 ft | 446 kts | 234° |
| 2026-05-04 09:58 | 37.60173 | 157.75121 | 35104 ft | 445 kts | 234° |
| 2026-05-04 09:58 | 37.58221 | 157.72088 | 35362 ft | 445 kts | 234° |
| 2026-05-04 10:00 | 37.44517 | 157.50870 | 35621 ft | 443 kts | 234° |
| 2026-05-04 10:00 | 37.42569 | 157.47868 | 35615 ft | 443 kts | 234° |
| 2026-05-04 10:04 | 37.15222 | 157.05978 | 35630 ft | 446 kts | 234° |
| 2026-05-04 10:04 | 37.11279 | 156.99979 | 35615 ft | 446 kts | 234° |
| 2026-05-04 10:05 | 37.07332 | 156.93991 | 35615 ft | 446 kts | 233° |
| 2026-05-04 10:05 | 37.03380 | 156.88004 | 35611 ft | 446 kts | 233° |
| 2026-05-04 10:06 | 36.99423 | 156.82020 | 35615 ft | 446 kts | 233° |
| 2026-05-04 10:06 | 36.95464 | 156.76041 | 35633 ft | 446 kts | 233° |